<?xml version="1.0" encoding="UTF-8"?>
<gpx version="1.1" creator="2bulu-scraper" xmlns="http://www.topografix.com/GPX/1/1">
  <metadata><name>宜宾七星山</name><desc>source: 2bulu.com trackId=81748445; exported 2026-08-31T01:46:05.213Z</desc>
    <bounds minlat="28.7225739" minlon="104.6306028" maxlat="28.7626478" maxlon="104.6762657"/>
    <link href="https://www.2bulu.com/track/t-Gbv01%252FEtgxzp%252FR2KBg5Tzw%253D%253D.htm"><text>2bulu 源页面</text></link>
  </metadata>
  <wpt lat="28.762229" lon="104.6750794"><ele>257</ele><name>
        </name></wpt>
  <wpt lat="28.7541316" lon="104.6752273"><ele>258</ele><name>
        </name></wpt>
  <wpt lat="28.7541621" lon="104.674687"><ele>281</ele><name>
        </name></wpt>
  <wpt lat="28.7525286" lon="104.6731238"><ele>362</ele><name>
        </name></wpt>
  <wpt lat="28.7499235" lon="104.6730519"><ele>479</ele><name>
        </name></wpt>
  <wpt lat="28.7414127" lon="104.6616251"><ele>589</ele><name>
        </name></wpt>
  <wpt lat="28.7338501" lon="104.6566716"><ele>654</ele><name>
        </name></wpt>
  <wpt lat="28.7314463" lon="104.653871"><ele>635</ele><name>
        </name></wpt>
  <wpt lat="28.7315406" lon="104.6526608"><ele>611</ele><name>
        </name></wpt>
  <wpt lat="28.7297649" lon="104.650826"><ele>638</ele><name>
        </name></wpt>
  <wpt lat="28.7292897" lon="104.650734"><ele>641</ele><name>
        </name></wpt>
  <wpt lat="28.7271323" lon="104.6494937"><ele>664</ele><name>
        </name></wpt>
  <wpt lat="28.7233346" lon="104.6476508"><ele>729</ele><name>
        </name></wpt>
  <wpt lat="28.7226796" lon="104.6474224"><ele>720</ele><name>
        </name></wpt>
  <wpt lat="28.7236416" lon="104.6464556"><ele>660</ele><name>
        </name></wpt>
  <wpt lat="28.7254435" lon="104.6447703"><ele>532</ele><name>
        </name></wpt>
  <wpt lat="28.7258034" lon="104.6436321"><ele>510</ele><name>
        </name></wpt>
  <wpt lat="28.7271297" lon="104.6432823"><ele>468</ele><name>
        </name></wpt>
  <wpt lat="28.7276474" lon="104.6427569"><ele>444</ele><name>
        </name></wpt>
  <wpt lat="28.7288738" lon="104.6391968"><ele>388</ele><name>
        </name></wpt>
  <wpt lat="28.7296648" lon="104.6331166"><ele>351</ele><name>
        </name></wpt>
  <wpt lat="28.7293922" lon="104.6328032"><ele>352</ele><name>
        </name></wpt>
  <trk><name>宜宾七星山</name>
      <trkseg>
        <trkpt lat="28.7626317" lon="104.6745969"><ele>262.68</ele><time>2026-04-05T17:26:30.000Z</time></trkpt>
        <trkpt lat="28.7626478" lon="104.6745646"><ele>262.68</ele><time>2026-04-05T17:26:32.000Z</time></trkpt>
        <trkpt lat="28.7626118" lon="104.6746335"><ele>260.14</ele><time>2026-04-05T17:26:50.000Z</time></trkpt>
        <trkpt lat="28.7625632" lon="104.6747468"><ele>258.21</ele><time>2026-04-05T17:26:58.000Z</time></trkpt>
        <trkpt lat="28.7624991" lon="104.6748552"><ele>257.2</ele><time>2026-04-05T17:27:06.000Z</time></trkpt>
        <trkpt lat="28.762426" lon="104.6749549"><ele>256.98</ele><time>2026-04-05T17:27:14.000Z</time></trkpt>
        <trkpt lat="28.7623361" lon="104.6750283"><ele>256.79</ele><time>2026-04-05T17:27:22.000Z</time></trkpt>
        <trkpt lat="28.762229" lon="104.6750794"><ele>256.68</ele><time>2026-04-05T17:27:30.000Z</time></trkpt>
        <trkpt lat="28.7621238" lon="104.67512"><ele>256.84</ele><time>2026-04-05T17:27:38.000Z</time></trkpt>
        <trkpt lat="28.7620165" lon="104.675145"><ele>256.64</ele><time>2026-04-05T17:27:46.000Z</time></trkpt>
        <trkpt lat="28.7619062" lon="104.6751595"><ele>256.44</ele><time>2026-04-05T17:27:54.000Z</time></trkpt>
        <trkpt lat="28.7617925" lon="104.6751685"><ele>256.42</ele><time>2026-04-05T17:28:02.000Z</time></trkpt>
        <trkpt lat="28.7616866" lon="104.6751844"><ele>256.78</ele><time>2026-04-05T17:28:10.000Z</time></trkpt>
        <trkpt lat="28.761579" lon="104.6752048"><ele>256.9</ele><time>2026-04-05T17:28:18.000Z</time></trkpt>
        <trkpt lat="28.7614654" lon="104.6752284"><ele>256.64</ele><time>2026-04-05T17:28:26.000Z</time></trkpt>
        <trkpt lat="28.7613562" lon="104.6752682"><ele>256.37</ele><time>2026-04-05T17:28:34.000Z</time></trkpt>
        <trkpt lat="28.761251" lon="104.6753133"><ele>256.21</ele><time>2026-04-05T17:28:42.000Z</time></trkpt>
        <trkpt lat="28.761147" lon="104.6753631"><ele>255.64</ele><time>2026-04-05T17:28:50.000Z</time></trkpt>
        <trkpt lat="28.7610411" lon="104.6754058"><ele>255.73</ele><time>2026-04-05T17:28:58.000Z</time></trkpt>
        <trkpt lat="28.7609387" lon="104.6754547"><ele>255.34</ele><time>2026-04-05T17:29:06.000Z</time></trkpt>
        <trkpt lat="28.7608411" lon="104.6755131"><ele>255.02</ele><time>2026-04-05T17:29:14.000Z</time></trkpt>
        <trkpt lat="28.760745" lon="104.675572"><ele>254.91</ele><time>2026-04-05T17:29:22.000Z</time></trkpt>
        <trkpt lat="28.760652" lon="104.6756293"><ele>254.81</ele><time>2026-04-05T17:29:30.000Z</time></trkpt>
        <trkpt lat="28.7605683" lon="104.6757039"><ele>254.65</ele><time>2026-04-05T17:29:38.000Z</time></trkpt>
        <trkpt lat="28.7604968" lon="104.6757899"><ele>253.97</ele><time>2026-04-05T17:29:46.000Z</time></trkpt>
        <trkpt lat="28.7604204" lon="104.6758682"><ele>253.5</ele><time>2026-04-05T17:29:54.000Z</time></trkpt>
        <trkpt lat="28.7603381" lon="104.6759476"><ele>253.13</ele><time>2026-04-05T17:30:02.000Z</time></trkpt>
        <trkpt lat="28.7602521" lon="104.676022"><ele>253.08</ele><time>2026-04-05T17:30:10.000Z</time></trkpt>
        <trkpt lat="28.7601653" lon="104.6760912"><ele>252.82</ele><time>2026-04-05T17:30:18.000Z</time></trkpt>
        <trkpt lat="28.7600782" lon="104.676152"><ele>251.48</ele><time>2026-04-05T17:30:26.000Z</time></trkpt>
        <trkpt lat="28.7599792" lon="104.676175"><ele>250.31</ele><time>2026-04-05T17:30:34.000Z</time></trkpt>
        <trkpt lat="28.7598741" lon="104.6761965"><ele>248.91</ele><time>2026-04-05T17:30:42.000Z</time></trkpt>
        <trkpt lat="28.7597663" lon="104.6762073"><ele>247.8</ele><time>2026-04-05T17:30:50.000Z</time></trkpt>
        <trkpt lat="28.7596613" lon="104.6761987"><ele>246.41</ele><time>2026-04-05T17:30:58.000Z</time></trkpt>
        <trkpt lat="28.7595497" lon="104.67619"><ele>244.96</ele><time>2026-04-05T17:31:07.000Z</time></trkpt>
        <trkpt lat="28.7594407" lon="104.6761926"><ele>243.86</ele><time>2026-04-05T17:31:15.000Z</time></trkpt>
        <trkpt lat="28.7593374" lon="104.6761985"><ele>244.15</ele><time>2026-04-05T17:31:23.000Z</time></trkpt>
        <trkpt lat="28.7592375" lon="104.6762124"><ele>244.74</ele><time>2026-04-05T17:31:31.000Z</time></trkpt>
        <trkpt lat="28.7591437" lon="104.6762533"><ele>245.1</ele><time>2026-04-05T17:31:39.000Z</time></trkpt>
        <trkpt lat="28.7590481" lon="104.6762657"><ele>246.26</ele><time>2026-04-05T17:31:47.000Z</time></trkpt>
        <trkpt lat="28.7589554" lon="104.6762437"><ele>246.94</ele><time>2026-04-05T17:31:55.000Z</time></trkpt>
        <trkpt lat="28.7588578" lon="104.6762076"><ele>247.45</ele><time>2026-04-05T17:32:03.000Z</time></trkpt>
        <trkpt lat="28.7587555" lon="104.6761646"><ele>247.51</ele><time>2026-04-05T17:32:13.000Z</time></trkpt>
        <trkpt lat="28.758662" lon="104.6761569"><ele>245.83</ele><time>2026-04-05T17:32:21.000Z</time></trkpt>
        <trkpt lat="28.7585588" lon="104.6761792"><ele>244.5</ele><time>2026-04-05T17:32:29.000Z</time></trkpt>
        <trkpt lat="28.7584468" lon="104.6762015"><ele>244.04</ele><time>2026-04-05T17:32:37.000Z</time></trkpt>
        <trkpt lat="28.7583372" lon="104.6762238"><ele>244.3</ele><time>2026-04-05T17:32:45.000Z</time></trkpt>
        <trkpt lat="28.758227" lon="104.6762358"><ele>245.25</ele><time>2026-04-05T17:32:53.000Z</time></trkpt>
        <trkpt lat="28.7581221" lon="104.6762445"><ele>245.96</ele><time>2026-04-05T17:33:01.000Z</time></trkpt>
        <trkpt lat="28.7580239" lon="104.6762446"><ele>247.08</ele><time>2026-04-05T17:33:09.000Z</time></trkpt>
        <trkpt lat="28.7579289" lon="104.676236"><ele>247.98</ele><time>2026-04-05T17:33:17.000Z</time></trkpt>
        <trkpt lat="28.7578331" lon="104.6762259"><ele>248.96</ele><time>2026-04-05T17:33:25.000Z</time></trkpt>
        <trkpt lat="28.7577403" lon="104.6762015"><ele>250</ele><time>2026-04-05T17:33:33.000Z</time></trkpt>
        <trkpt lat="28.7576353" lon="104.6761692"><ele>250.88</ele><time>2026-04-05T17:33:43.000Z</time></trkpt>
        <trkpt lat="28.7575369" lon="104.6761468"><ele>251.98</ele><time>2026-04-05T17:33:51.000Z</time></trkpt>
        <trkpt lat="28.7574417" lon="104.6761287"><ele>252.26</ele><time>2026-04-05T17:33:59.000Z</time></trkpt>
        <trkpt lat="28.7573458" lon="104.6761157"><ele>252.7</ele><time>2026-04-05T17:34:07.000Z</time></trkpt>
        <trkpt lat="28.7572513" lon="104.67609"><ele>253.51</ele><time>2026-04-05T17:34:15.000Z</time></trkpt>
        <trkpt lat="28.7571517" lon="104.6760528"><ele>254.82</ele><time>2026-04-05T17:34:23.000Z</time></trkpt>
        <trkpt lat="28.7570445" lon="104.6760269"><ele>255.88</ele><time>2026-04-05T17:34:31.000Z</time></trkpt>
        <trkpt lat="28.7569395" lon="104.6760088"><ele>256.55</ele><time>2026-04-05T17:34:39.000Z</time></trkpt>
        <trkpt lat="28.756839" lon="104.6760129"><ele>257.4</ele><time>2026-04-05T17:34:47.000Z</time></trkpt>
        <trkpt lat="28.756735" lon="104.6759931"><ele>257.62</ele><time>2026-04-05T17:34:55.000Z</time></trkpt>
        <trkpt lat="28.7566313" lon="104.6759894"><ele>259.07</ele><time>2026-04-05T17:35:03.000Z</time></trkpt>
        <trkpt lat="28.7565316" lon="104.6760101"><ele>259.95</ele><time>2026-04-05T17:35:11.000Z</time></trkpt>
        <trkpt lat="28.7564369" lon="104.6760505"><ele>259.47</ele><time>2026-04-05T17:35:19.000Z</time></trkpt>
        <trkpt lat="28.7563433" lon="104.6760922"><ele>259.63</ele><time>2026-04-05T17:35:27.000Z</time></trkpt>
        <trkpt lat="28.7562403" lon="104.676101"><ele>259.19</ele><time>2026-04-05T17:35:35.000Z</time></trkpt>
        <trkpt lat="28.7561403" lon="104.676079"><ele>259.43</ele><time>2026-04-05T17:35:43.000Z</time></trkpt>
        <trkpt lat="28.7560424" lon="104.676044"><ele>259.6</ele><time>2026-04-05T17:35:51.000Z</time></trkpt>
        <trkpt lat="28.7559477" lon="104.6760134"><ele>260.24</ele><time>2026-04-05T17:35:59.000Z</time></trkpt>
        <trkpt lat="28.7558537" lon="104.6759862"><ele>261.18</ele><time>2026-04-05T17:36:07.000Z</time></trkpt>
        <trkpt lat="28.755757" lon="104.6759573"><ele>261.79</ele><time>2026-04-05T17:36:15.000Z</time></trkpt>
        <trkpt lat="28.7556564" lon="104.6759454"><ele>262.5</ele><time>2026-04-05T17:36:23.000Z</time></trkpt>
        <trkpt lat="28.7555584" lon="104.6759762"><ele>262.7</ele><time>2026-04-05T17:36:31.000Z</time></trkpt>
        <trkpt lat="28.7554574" lon="104.675988"><ele>262.53</ele><time>2026-04-05T17:36:39.000Z</time></trkpt>
        <trkpt lat="28.7553561" lon="104.6759834"><ele>261.69</ele><time>2026-04-05T17:36:47.000Z</time></trkpt>
        <trkpt lat="28.7552523" lon="104.6759771"><ele>261.49</ele><time>2026-04-05T17:36:55.000Z</time></trkpt>
        <trkpt lat="28.7551478" lon="104.6759374"><ele>261.28</ele><time>2026-04-05T17:37:03.000Z</time></trkpt>
        <trkpt lat="28.7550535" lon="104.6758715"><ele>260.81</ele><time>2026-04-05T17:37:11.000Z</time></trkpt>
        <trkpt lat="28.7549756" lon="104.6757835"><ele>257.65</ele><time>2026-04-05T17:37:19.000Z</time></trkpt>
        <trkpt lat="28.7548823" lon="104.6757065"><ele>256.22</ele><time>2026-04-05T17:37:27.000Z</time></trkpt>
        <trkpt lat="28.7547733" lon="104.6756529"><ele>255.68</ele><time>2026-04-05T17:37:35.000Z</time></trkpt>
        <trkpt lat="28.7546592" lon="104.6756323"><ele>255.42</ele><time>2026-04-05T17:37:43.000Z</time></trkpt>
        <trkpt lat="28.7545445" lon="104.6756322"><ele>255.15</ele><time>2026-04-05T17:37:51.000Z</time></trkpt>
        <trkpt lat="28.7544279" lon="104.67564"><ele>254.88</ele><time>2026-04-05T17:37:59.000Z</time></trkpt>
        <trkpt lat="28.7543124" lon="104.6756389"><ele>254.14</ele><time>2026-04-05T17:38:07.000Z</time></trkpt>
        <trkpt lat="28.754205" lon="104.67561"><ele>252.51</ele><time>2026-04-05T17:38:15.000Z</time></trkpt>
        <trkpt lat="28.7541199" lon="104.6755481"><ele>252.15</ele><time>2026-04-05T17:38:23.000Z</time></trkpt>
        <trkpt lat="28.7540818" lon="104.6754443"><ele>253.48</ele><time>2026-04-05T17:38:31.000Z</time></trkpt>
        <trkpt lat="28.7541334" lon="104.6753471"><ele>255.16</ele><time>2026-04-05T17:38:39.000Z</time></trkpt>
        <trkpt lat="28.7541849" lon="104.6752418"><ele>257.81</ele><time>2026-04-05T17:38:49.000Z</time></trkpt>
        <trkpt lat="28.7541316" lon="104.6752273"><ele>259.12</ele><time>2026-04-05T17:38:59.000Z</time></trkpt>
        <trkpt lat="28.7540546" lon="104.6752941"><ele>258.61</ele><time>2026-04-05T17:39:09.000Z</time></trkpt>
        <trkpt lat="28.7539667" lon="104.6752815"><ele>260.73</ele><time>2026-04-05T17:39:17.000Z</time></trkpt>
        <trkpt lat="28.7539635" lon="104.675198"><ele>262.29</ele><time>2026-04-05T17:39:25.000Z</time></trkpt>
        <trkpt lat="28.7540288" lon="104.6751281"><ele>264.76</ele><time>2026-04-05T17:39:33.000Z</time></trkpt>
        <trkpt lat="28.7540938" lon="104.675024"><ele>267.28</ele><time>2026-04-05T17:39:43.000Z</time></trkpt>
        <trkpt lat="28.7541235" lon="104.674912"><ele>270.45</ele><time>2026-04-05T17:39:51.000Z</time></trkpt>
        <trkpt lat="28.7541542" lon="104.6748018"><ele>273.18</ele><time>2026-04-05T17:39:59.000Z</time></trkpt>
        <trkpt lat="28.7541621" lon="104.674687"><ele>275.3</ele><time>2026-04-05T17:40:07.000Z</time></trkpt>
        <trkpt lat="28.7541" lon="104.6747058"><ele>277.77</ele><time>2026-04-05T17:40:21.000Z</time></trkpt>
        <trkpt lat="28.7539958" lon="104.6747483"><ele>275.63</ele><time>2026-04-05T17:40:31.000Z</time></trkpt>
        <trkpt lat="28.75389" lon="104.6747157"><ele>275.87</ele><time>2026-04-05T17:40:41.000Z</time></trkpt>
        <trkpt lat="28.7537825" lon="104.6746733"><ele>276.36</ele><time>2026-04-05T17:40:49.000Z</time></trkpt>
        <trkpt lat="28.7536813" lon="104.6746279"><ele>276.74</ele><time>2026-04-05T17:40:57.000Z</time></trkpt>
        <trkpt lat="28.7536396" lon="104.6745919"><ele>275.55</ele><time>2026-04-05T17:41:01.000Z</time></trkpt>
        <trkpt lat="28.7535608" lon="104.6745569"><ele>274.21</ele><time>2026-04-05T17:41:25.000Z</time></trkpt>
        <trkpt lat="28.7534717" lon="104.6745873"><ele>274.55</ele><time>2026-04-05T17:41:47.000Z</time></trkpt>
        <trkpt lat="28.7534232" lon="104.6746856"><ele>275.69</ele><time>2026-04-05T17:41:59.000Z</time></trkpt>
        <trkpt lat="28.7533425" lon="104.674692"><ele>278</ele><time>2026-04-05T17:42:25.000Z</time></trkpt>
        <trkpt lat="28.7532734" lon="104.6746278"><ele>281.57</ele><time>2026-04-05T17:42:41.000Z</time></trkpt>
        <trkpt lat="28.7531939" lon="104.6746504"><ele>279.57</ele><time>2026-04-05T17:42:55.000Z</time></trkpt>
        <trkpt lat="28.7531089" lon="104.6747009"><ele>279.7</ele><time>2026-04-05T17:43:05.000Z</time></trkpt>
        <trkpt lat="28.7530353" lon="104.674649"><ele>282.46</ele><time>2026-04-05T17:43:19.000Z</time></trkpt>
        <trkpt lat="28.7529884" lon="104.6745405"><ele>287.8</ele><time>2026-04-05T17:43:33.000Z</time></trkpt>
        <trkpt lat="28.7529887" lon="104.6744229"><ele>293.3</ele><time>2026-04-05T17:43:43.000Z</time></trkpt>
        <trkpt lat="28.7529294" lon="104.674357"><ele>297.64</ele><time>2026-04-05T17:43:59.000Z</time></trkpt>
        <trkpt lat="28.7528457" lon="104.6743086"><ele>301.73</ele><time>2026-04-05T17:44:17.000Z</time></trkpt>
        <trkpt lat="28.7527746" lon="104.6742331"><ele>304.26</ele><time>2026-04-05T17:44:35.000Z</time></trkpt>
        <trkpt lat="28.7527285" lon="104.6741395"><ele>307.71</ele><time>2026-04-05T17:44:49.000Z</time></trkpt>
        <trkpt lat="28.7527016" lon="104.6740286"><ele>309.47</ele><time>2026-04-05T17:45:01.000Z</time></trkpt>
        <trkpt lat="28.7526841" lon="104.6739196"><ele>311.33</ele><time>2026-04-05T17:45:17.000Z</time></trkpt>
        <trkpt lat="28.7526658" lon="104.6738088"><ele>313.45</ele><time>2026-04-05T17:45:57.000Z</time></trkpt>
        <trkpt lat="28.7526272" lon="104.6737128"><ele>315.13</ele><time>2026-04-05T17:46:19.000Z</time></trkpt>
        <trkpt lat="28.7525826" lon="104.6736181"><ele>319.43</ele><time>2026-04-05T17:46:51.000Z</time></trkpt>
        <trkpt lat="28.752552" lon="104.6735101"><ele>327.2</ele><time>2026-04-05T17:47:09.000Z</time></trkpt>
        <trkpt lat="28.7525487" lon="104.6734012"><ele>333.35</ele><time>2026-04-05T17:47:25.000Z</time></trkpt>
        <trkpt lat="28.7525692" lon="104.6732951"><ele>338.58</ele><time>2026-04-05T17:47:47.000Z</time></trkpt>
        <trkpt lat="28.7525905" lon="104.6731906"><ele>344.69</ele><time>2026-04-05T17:48:11.000Z</time></trkpt>
        <trkpt lat="28.7525286" lon="104.6731238"><ele>351.62</ele><time>2026-04-05T17:48:29.000Z</time></trkpt>
        <trkpt lat="28.7524422" lon="104.6731597"><ele>356.04</ele><time>2026-04-05T17:48:39.000Z</time></trkpt>
        <trkpt lat="28.752386" lon="104.6732577"><ele>357.09</ele><time>2026-04-05T17:48:47.000Z</time></trkpt>
        <trkpt lat="28.7523556" lon="104.673382"><ele>357.95</ele><time>2026-04-05T17:48:57.000Z</time></trkpt>
        <trkpt lat="28.752338" lon="104.6735067"><ele>359.27</ele><time>2026-04-05T17:49:07.000Z</time></trkpt>
        <trkpt lat="28.7523565" lon="104.673621"><ele>360.93</ele><time>2026-04-05T17:49:17.000Z</time></trkpt>
        <trkpt lat="28.752418" lon="104.6737139"><ele>362.04</ele><time>2026-04-05T17:49:27.000Z</time></trkpt>
        <trkpt lat="28.7524477" lon="104.6738173"><ele>364.04</ele><time>2026-04-05T17:49:37.000Z</time></trkpt>
        <trkpt lat="28.7524185" lon="104.6739241"><ele>366.34</ele><time>2026-04-05T17:49:47.000Z</time></trkpt>
        <trkpt lat="28.7523576" lon="104.674026"><ele>368.01</ele><time>2026-04-05T17:49:57.000Z</time></trkpt>
        <trkpt lat="28.7522886" lon="104.6741247"><ele>369.85</ele><time>2026-04-05T17:50:07.000Z</time></trkpt>
        <trkpt lat="28.7522257" lon="104.6742316"><ele>371.68</ele><time>2026-04-05T17:50:17.000Z</time></trkpt>
        <trkpt lat="28.7521677" lon="104.6743388"><ele>372.78</ele><time>2026-04-05T17:50:27.000Z</time></trkpt>
        <trkpt lat="28.7520821" lon="104.6743537"><ele>374.08</ele><time>2026-04-05T17:50:39.000Z</time></trkpt>
        <trkpt lat="28.752063" lon="104.674261"><ele>377.09</ele><time>2026-04-05T17:50:49.000Z</time></trkpt>
        <trkpt lat="28.7521047" lon="104.674158"><ele>380.36</ele><time>2026-04-05T17:50:59.000Z</time></trkpt>
        <trkpt lat="28.752133" lon="104.6740422"><ele>383.32</ele><time>2026-04-05T17:51:13.000Z</time></trkpt>
        <trkpt lat="28.7520837" lon="104.6739489"><ele>385.2</ele><time>2026-04-05T17:51:25.000Z</time></trkpt>
        <trkpt lat="28.751995" lon="104.6738823"><ele>387.09</ele><time>2026-04-05T17:51:35.000Z</time></trkpt>
        <trkpt lat="28.7519064" lon="104.6739355"><ele>388.57</ele><time>2026-04-05T17:51:47.000Z</time></trkpt>
        <trkpt lat="28.7518629" lon="104.673993"><ele>388.47</ele><time>2026-04-05T17:51:53.000Z</time></trkpt>
        <trkpt lat="28.7517924" lon="104.6740496"><ele>388.51</ele><time>2026-04-05T17:52:43.000Z</time></trkpt>
        <trkpt lat="28.7517105" lon="104.6741008"><ele>389.11</ele><time>2026-04-05T17:52:57.000Z</time></trkpt>
        <trkpt lat="28.7517057" lon="104.6740276"><ele>390.24</ele><time>2026-04-05T17:53:13.000Z</time></trkpt>
        <trkpt lat="28.7516444" lon="104.674032"><ele>391.97</ele><time>2026-04-05T17:53:27.000Z</time></trkpt>
        <trkpt lat="28.7515573" lon="104.6740663"><ele>394.3</ele><time>2026-04-05T17:53:43.000Z</time></trkpt>
        <trkpt lat="28.7514542" lon="104.6740858"><ele>396.9</ele><time>2026-04-05T17:53:59.000Z</time></trkpt>
        <trkpt lat="28.7513601" lon="104.6741191"><ele>399.86</ele><time>2026-04-05T17:54:15.000Z</time></trkpt>
        <trkpt lat="28.7513089" lon="104.6742001"><ele>403.45</ele><time>2026-04-05T17:54:27.000Z</time></trkpt>
        <trkpt lat="28.7512412" lon="104.6742769"><ele>405.27</ele><time>2026-04-05T17:54:41.000Z</time></trkpt>
        <trkpt lat="28.751169" lon="104.6743533"><ele>407.45</ele><time>2026-04-05T17:54:53.000Z</time></trkpt>
        <trkpt lat="28.7511075" lon="104.6744387"><ele>410.42</ele><time>2026-04-05T17:55:07.000Z</time></trkpt>
        <trkpt lat="28.7510244" lon="104.6744796"><ele>413.03</ele><time>2026-04-05T17:55:21.000Z</time></trkpt>
        <trkpt lat="28.7509703" lon="104.6744081"><ele>415.57</ele><time>2026-04-05T17:55:37.000Z</time></trkpt>
        <trkpt lat="28.7509848" lon="104.6742834"><ele>417.88</ele><time>2026-04-05T17:56:11.000Z</time></trkpt>
        <trkpt lat="28.7509918" lon="104.6741582"><ele>421.54</ele><time>2026-04-05T17:56:29.000Z</time></trkpt>
        <trkpt lat="28.7509586" lon="104.6740478"><ele>426.7</ele><time>2026-04-05T17:56:47.000Z</time></trkpt>
        <trkpt lat="28.7508908" lon="104.673975"><ele>429.76</ele><time>2026-04-05T17:57:05.000Z</time></trkpt>
        <trkpt lat="28.7508608" lon="104.6739357"><ele>434.05</ele><time>2026-04-05T17:57:11.000Z</time></trkpt>
        <trkpt lat="28.7508536" lon="104.6738482"><ele>438.66</ele><time>2026-04-05T17:57:31.000Z</time></trkpt>
        <trkpt lat="28.7508385" lon="104.6737323"><ele>443.15</ele><time>2026-04-05T18:00:21.000Z</time></trkpt>
        <trkpt lat="28.750892" lon="104.6736459"><ele>444.77</ele><time>2026-04-05T18:00:35.000Z</time></trkpt>
        <trkpt lat="28.7509597" lon="104.6735738"><ele>446.38</ele><time>2026-04-05T18:00:51.000Z</time></trkpt>
        <trkpt lat="28.7509934" lon="104.6734792"><ele>449.23</ele><time>2026-04-05T18:01:05.000Z</time></trkpt>
        <trkpt lat="28.7510653" lon="104.6734195"><ele>451.07</ele><time>2026-04-05T18:01:21.000Z</time></trkpt>
        <trkpt lat="28.7510978" lon="104.6733316"><ele>454.66</ele><time>2026-04-05T18:01:31.000Z</time></trkpt>
        <trkpt lat="28.7510957" lon="104.6732238"><ele>456.96</ele><time>2026-04-05T18:01:45.000Z</time></trkpt>
        <trkpt lat="28.7510784" lon="104.6731064"><ele>460.04</ele><time>2026-04-05T18:02:01.000Z</time></trkpt>
        <trkpt lat="28.7510532" lon="104.6729921"><ele>460.89</ele><time>2026-04-05T18:02:13.000Z</time></trkpt>
        <trkpt lat="28.7510246" lon="104.672879"><ele>461.6</ele><time>2026-04-05T18:02:25.000Z</time></trkpt>
        <trkpt lat="28.7509737" lon="104.6727793"><ele>464.47</ele><time>2026-04-05T18:02:37.000Z</time></trkpt>
        <trkpt lat="28.750908" lon="104.6727006"><ele>465.56</ele><time>2026-04-05T18:02:51.000Z</time></trkpt>
        <trkpt lat="28.7508103" lon="104.6726728"><ele>467.98</ele><time>2026-04-05T18:03:05.000Z</time></trkpt>
        <trkpt lat="28.750712" lon="104.6726796"><ele>469.57</ele><time>2026-04-05T18:03:15.000Z</time></trkpt>
        <trkpt lat="28.7506149" lon="104.6727102"><ele>471.23</ele><time>2026-04-05T18:03:25.000Z</time></trkpt>
        <trkpt lat="28.7505331" lon="104.6727737"><ele>472.85</ele><time>2026-04-05T18:03:43.000Z</time></trkpt>
        <trkpt lat="28.7504497" lon="104.6728465"><ele>473.83</ele><time>2026-04-05T18:03:57.000Z</time></trkpt>
        <trkpt lat="28.7503683" lon="104.6729146"><ele>475.81</ele><time>2026-04-05T18:04:11.000Z</time></trkpt>
        <trkpt lat="28.7502933" lon="104.6729798"><ele>475.67</ele><time>2026-04-05T18:04:21.000Z</time></trkpt>
        <trkpt lat="28.750209" lon="104.6730386"><ele>474.82</ele><time>2026-04-05T18:04:31.000Z</time></trkpt>
        <trkpt lat="28.7501386" lon="104.6731105"><ele>475.13</ele><time>2026-04-05T18:04:41.000Z</time></trkpt>
        <trkpt lat="28.7500596" lon="104.6731714"><ele>476.06</ele><time>2026-04-05T18:04:53.000Z</time></trkpt>
        <trkpt lat="28.7499737" lon="104.6731476"><ele>476.35</ele><time>2026-04-05T18:05:07.000Z</time></trkpt>
        <trkpt lat="28.7499235" lon="104.6730519"><ele>476.31</ele><time>2026-04-05T18:05:19.000Z</time></trkpt>
        <trkpt lat="28.7499122" lon="104.6729245"><ele>477.56</ele><time>2026-04-05T18:05:31.000Z</time></trkpt>
        <trkpt lat="28.7499099" lon="104.67279"><ele>479.37</ele><time>2026-04-05T18:05:45.000Z</time></trkpt>
        <trkpt lat="28.7498637" lon="104.6726893"><ele>480.74</ele><time>2026-04-05T18:05:59.000Z</time></trkpt>
        <trkpt lat="28.7497842" lon="104.6726238"><ele>484.11</ele><time>2026-04-05T18:06:09.000Z</time></trkpt>
        <trkpt lat="28.7497314" lon="104.6726101"><ele>485.93</ele><time>2026-04-05T18:06:15.000Z</time></trkpt>
        <trkpt lat="28.7496588" lon="104.6725527"><ele>487.13</ele><time>2026-04-05T18:06:27.000Z</time></trkpt>
        <trkpt lat="28.7496256" lon="104.6724615"><ele>487.97</ele><time>2026-04-05T18:06:39.000Z</time></trkpt>
        <trkpt lat="28.7496951" lon="104.6724416"><ele>489.71</ele><time>2026-04-05T18:06:57.000Z</time></trkpt>
        <trkpt lat="28.7497927" lon="104.6724751"><ele>491.23</ele><time>2026-04-05T18:07:09.000Z</time></trkpt>
        <trkpt lat="28.7498995" lon="104.6725297"><ele>493.74</ele><time>2026-04-05T18:07:21.000Z</time></trkpt>
        <trkpt lat="28.7500013" lon="104.6725583"><ele>495.68</ele><time>2026-04-05T18:07:31.000Z</time></trkpt>
        <trkpt lat="28.7501056" lon="104.6725777"><ele>498</ele><time>2026-04-05T18:07:43.000Z</time></trkpt>
        <trkpt lat="28.7502033" lon="104.6725684"><ele>499.65</ele><time>2026-04-05T18:07:53.000Z</time></trkpt>
        <trkpt lat="28.7502868" lon="104.6725118"><ele>499.98</ele><time>2026-04-05T18:08:07.000Z</time></trkpt>
        <trkpt lat="28.7503741" lon="104.672466"><ele>500.24</ele><time>2026-04-05T18:08:15.000Z</time></trkpt>
        <trkpt lat="28.7504591" lon="104.6724012"><ele>499.25</ele><time>2026-04-05T18:08:25.000Z</time></trkpt>
        <trkpt lat="28.7505338" lon="104.672333"><ele>499.26</ele><time>2026-04-05T18:08:35.000Z</time></trkpt>
        <trkpt lat="28.750621" lon="104.6722783"><ele>501.66</ele><time>2026-04-05T18:08:45.000Z</time></trkpt>
        <trkpt lat="28.7506972" lon="104.6721956"><ele>501.99</ele><time>2026-04-05T18:08:57.000Z</time></trkpt>
        <trkpt lat="28.7507626" lon="104.6721044"><ele>502.76</ele><time>2026-04-05T18:09:07.000Z</time></trkpt>
        <trkpt lat="28.750798" lon="104.6719913"><ele>504.09</ele><time>2026-04-05T18:09:17.000Z</time></trkpt>
        <trkpt lat="28.7507358" lon="104.671876"><ele>502.91</ele><time>2026-04-05T18:10:55.000Z</time></trkpt>
        <trkpt lat="28.7506349" lon="104.6718453"><ele>500.79</ele><time>2026-04-05T18:11:07.000Z</time></trkpt>
        <trkpt lat="28.750535" lon="104.671818"><ele>499.18</ele><time>2026-04-05T18:11:15.000Z</time></trkpt>
        <trkpt lat="28.7504361" lon="104.6717957"><ele>497.38</ele><time>2026-04-05T18:11:25.000Z</time></trkpt>
        <trkpt lat="28.7503413" lon="104.6718077"><ele>496.47</ele><time>2026-04-05T18:11:35.000Z</time></trkpt>
        <trkpt lat="28.750243" lon="104.6718431"><ele>495.41</ele><time>2026-04-05T18:11:49.000Z</time></trkpt>
        <trkpt lat="28.7501493" lon="104.6718726"><ele>497.03</ele><time>2026-04-05T18:11:57.000Z</time></trkpt>
        <trkpt lat="28.7500734" lon="104.6718133"><ele>498.29</ele><time>2026-04-05T18:12:07.000Z</time></trkpt>
        <trkpt lat="28.750068" lon="104.6717015"><ele>499.53</ele><time>2026-04-05T18:12:17.000Z</time></trkpt>
        <trkpt lat="28.7500946" lon="104.6715769"><ele>498.23</ele><time>2026-04-05T18:12:27.000Z</time></trkpt>
        <trkpt lat="28.7501412" lon="104.6714629"><ele>497.05</ele><time>2026-04-05T18:12:35.000Z</time></trkpt>
        <trkpt lat="28.7501846" lon="104.6713511"><ele>495.81</ele><time>2026-04-05T18:12:43.000Z</time></trkpt>
        <trkpt lat="28.7501917" lon="104.6712378"><ele>495.71</ele><time>2026-04-05T18:12:51.000Z</time></trkpt>
        <trkpt lat="28.7501716" lon="104.6711208"><ele>497.24</ele><time>2026-04-05T18:13:03.000Z</time></trkpt>
        <trkpt lat="28.7501866" lon="104.6710098"><ele>497.04</ele><time>2026-04-05T18:13:13.000Z</time></trkpt>
        <trkpt lat="28.7502064" lon="104.6708985"><ele>497.2</ele><time>2026-04-05T18:13:23.000Z</time></trkpt>
        <trkpt lat="28.75024" lon="104.6707793"><ele>497.04</ele><time>2026-04-05T18:13:33.000Z</time></trkpt>
        <trkpt lat="28.7502896" lon="104.6706673"><ele>498.7</ele><time>2026-04-05T18:13:43.000Z</time></trkpt>
        <trkpt lat="28.7503022" lon="104.6706455"><ele>501.54</ele><time>2026-04-05T18:13:45.000Z</time></trkpt>
        <trkpt lat="28.7503218" lon="104.670567"><ele>502.5</ele><time>2026-04-05T18:13:57.000Z</time></trkpt>
        <trkpt lat="28.7502552" lon="104.6705411"><ele>504.31</ele><time>2026-04-05T18:14:15.000Z</time></trkpt>
        <trkpt lat="28.7501639" lon="104.670494"><ele>505.76</ele><time>2026-04-05T18:14:25.000Z</time></trkpt>
        <trkpt lat="28.7500608" lon="104.6704561"><ele>507.73</ele><time>2026-04-05T18:14:41.000Z</time></trkpt>
        <trkpt lat="28.7499501" lon="104.6704255"><ele>509.36</ele><time>2026-04-05T18:14:51.000Z</time></trkpt>
        <trkpt lat="28.7498479" lon="104.6704007"><ele>511.19</ele><time>2026-04-05T18:15:01.000Z</time></trkpt>
        <trkpt lat="28.7497556" lon="104.6703648"><ele>513.05</ele><time>2026-04-05T18:15:21.000Z</time></trkpt>
        <trkpt lat="28.7497341" lon="104.6703516"><ele>515.54</ele><time>2026-04-05T18:15:23.000Z</time></trkpt>
        <trkpt lat="28.7496536" lon="104.6703498"><ele>516.94</ele><time>2026-04-05T18:15:43.000Z</time></trkpt>
        <trkpt lat="28.749551" lon="104.6703836"><ele>515.67</ele><time>2026-04-05T18:15:53.000Z</time></trkpt>
        <trkpt lat="28.7494525" lon="104.6704015"><ele>515.53</ele><time>2026-04-05T18:16:01.000Z</time></trkpt>
        <trkpt lat="28.7493586" lon="104.6704242"><ele>515.54</ele><time>2026-04-05T18:16:09.000Z</time></trkpt>
        <trkpt lat="28.7492717" lon="104.6704821"><ele>515.53</ele><time>2026-04-05T18:16:17.000Z</time></trkpt>
        <trkpt lat="28.7492247" lon="104.6705951"><ele>515.29</ele><time>2026-04-05T18:16:27.000Z</time></trkpt>
        <trkpt lat="28.7491947" lon="104.670705"><ele>517.54</ele><time>2026-04-05T18:16:35.000Z</time></trkpt>
        <trkpt lat="28.7491946" lon="104.670821"><ele>519.97</ele><time>2026-04-05T18:16:59.000Z</time></trkpt>
        <trkpt lat="28.7492066" lon="104.6708635"><ele>522.76</ele><time>2026-04-05T18:17:03.000Z</time></trkpt>
        <trkpt lat="28.7491584" lon="104.6709196"><ele>524.04</ele><time>2026-04-05T18:17:19.000Z</time></trkpt>
        <trkpt lat="28.7491174" lon="104.6710057"><ele>524.57</ele><time>2026-04-05T18:17:51.000Z</time></trkpt>
        <trkpt lat="28.7490722" lon="104.6711105"><ele>522.48</ele><time>2026-04-05T18:18:01.000Z</time></trkpt>
        <trkpt lat="28.749012" lon="104.6711964"><ele>520.82</ele><time>2026-04-05T18:18:09.000Z</time></trkpt>
        <trkpt lat="28.7489353" lon="104.6712854"><ele>519.55</ele><time>2026-04-05T18:18:19.000Z</time></trkpt>
        <trkpt lat="28.7488512" lon="104.6713557"><ele>518.71</ele><time>2026-04-05T18:18:29.000Z</time></trkpt>
        <trkpt lat="28.7487692" lon="104.6714236"><ele>517.87</ele><time>2026-04-05T18:18:39.000Z</time></trkpt>
        <trkpt lat="28.7486871" lon="104.6714929"><ele>517.45</ele><time>2026-04-05T18:18:51.000Z</time></trkpt>
        <trkpt lat="28.7486283" lon="104.6715861"><ele>517.19</ele><time>2026-04-05T18:19:01.000Z</time></trkpt>
        <trkpt lat="28.7485748" lon="104.6716841"><ele>516.82</ele><time>2026-04-05T18:19:11.000Z</time></trkpt>
        <trkpt lat="28.748508" lon="104.6717719"><ele>516.01</ele><time>2026-04-05T18:19:19.000Z</time></trkpt>
        <trkpt lat="28.7484207" lon="104.6718289"><ele>515</ele><time>2026-04-05T18:19:27.000Z</time></trkpt>
        <trkpt lat="28.7483217" lon="104.6718641"><ele>514.42</ele><time>2026-04-05T18:19:35.000Z</time></trkpt>
        <trkpt lat="28.7482178" lon="104.671869"><ele>513.9</ele><time>2026-04-05T18:19:43.000Z</time></trkpt>
        <trkpt lat="28.7481166" lon="104.6718596"><ele>512.55</ele><time>2026-04-05T18:19:51.000Z</time></trkpt>
        <trkpt lat="28.7480148" lon="104.6718394"><ele>510.07</ele><time>2026-04-05T18:19:59.000Z</time></trkpt>
        <trkpt lat="28.7479162" lon="104.6718098"><ele>508.65</ele><time>2026-04-05T18:20:07.000Z</time></trkpt>
        <trkpt lat="28.7478155" lon="104.6717969"><ele>507.03</ele><time>2026-04-05T18:20:15.000Z</time></trkpt>
        <trkpt lat="28.7477197" lon="104.6718174"><ele>507.02</ele><time>2026-04-05T18:20:23.000Z</time></trkpt>
        <trkpt lat="28.7476362" lon="104.6718764"><ele>506.04</ele><time>2026-04-05T18:20:31.000Z</time></trkpt>
        <trkpt lat="28.7475504" lon="104.671935"><ele>505.7</ele><time>2026-04-05T18:20:39.000Z</time></trkpt>
        <trkpt lat="28.7474529" lon="104.6719481"><ele>505.22</ele><time>2026-04-05T18:20:47.000Z</time></trkpt>
        <trkpt lat="28.7473561" lon="104.6719217"><ele>504.53</ele><time>2026-04-05T18:20:55.000Z</time></trkpt>
        <trkpt lat="28.7472634" lon="104.6718755"><ele>504.41</ele><time>2026-04-05T18:21:03.000Z</time></trkpt>
        <trkpt lat="28.7471732" lon="104.6718278"><ele>503.99</ele><time>2026-04-05T18:21:11.000Z</time></trkpt>
        <trkpt lat="28.7470841" lon="104.671775"><ele>502.73</ele><time>2026-04-05T18:21:19.000Z</time></trkpt>
        <trkpt lat="28.746988" lon="104.6717819"><ele>501.3</ele><time>2026-04-05T18:21:27.000Z</time></trkpt>
        <trkpt lat="28.7469137" lon="104.6718587"><ele>499.87</ele><time>2026-04-05T18:21:35.000Z</time></trkpt>
        <trkpt lat="28.7468372" lon="104.6719489"><ele>499.32</ele><time>2026-04-05T18:21:43.000Z</time></trkpt>
        <trkpt lat="28.7467657" lon="104.6720452"><ele>499.2</ele><time>2026-04-05T18:21:51.000Z</time></trkpt>
        <trkpt lat="28.7467035" lon="104.6721364"><ele>498.36</ele><time>2026-04-05T18:21:59.000Z</time></trkpt>
        <trkpt lat="28.7466288" lon="104.6722176"><ele>497.26</ele><time>2026-04-05T18:22:07.000Z</time></trkpt>
        <trkpt lat="28.7465404" lon="104.6722444"><ele>496.22</ele><time>2026-04-05T18:22:15.000Z</time></trkpt>
        <trkpt lat="28.7464411" lon="104.6722506"><ele>496.08</ele><time>2026-04-05T18:22:23.000Z</time></trkpt>
        <trkpt lat="28.7463424" lon="104.6722261"><ele>496.13</ele><time>2026-04-05T18:22:31.000Z</time></trkpt>
        <trkpt lat="28.7462403" lon="104.6722154"><ele>496.26</ele><time>2026-04-05T18:22:39.000Z</time></trkpt>
        <trkpt lat="28.7461402" lon="104.6722047"><ele>495.9</ele><time>2026-04-05T18:22:47.000Z</time></trkpt>
        <trkpt lat="28.7460554" lon="104.6722629"><ele>495.01</ele><time>2026-04-05T18:22:55.000Z</time></trkpt>
        <trkpt lat="28.7459662" lon="104.6723282"><ele>495.36</ele><time>2026-04-05T18:23:03.000Z</time></trkpt>
        <trkpt lat="28.7458751" lon="104.6724014"><ele>493.76</ele><time>2026-04-05T18:23:11.000Z</time></trkpt>
        <trkpt lat="28.7457904" lon="104.6724803"><ele>491.81</ele><time>2026-04-05T18:23:19.000Z</time></trkpt>
        <trkpt lat="28.7457133" lon="104.6725562"><ele>490.32</ele><time>2026-04-05T18:23:27.000Z</time></trkpt>
        <trkpt lat="28.7456358" lon="104.672623"><ele>489.02</ele><time>2026-04-05T18:23:35.000Z</time></trkpt>
        <trkpt lat="28.7455781" lon="104.6727032"><ele>488.12</ele><time>2026-04-05T18:23:43.000Z</time></trkpt>
        <trkpt lat="28.745522" lon="104.6727839"><ele>487.95</ele><time>2026-04-05T18:23:51.000Z</time></trkpt>
        <trkpt lat="28.7454389" lon="104.6728553"><ele>486.92</ele><time>2026-04-05T18:24:01.000Z</time></trkpt>
        <trkpt lat="28.7453447" lon="104.6728467"><ele>487.41</ele><time>2026-04-05T18:24:09.000Z</time></trkpt>
        <trkpt lat="28.7452597" lon="104.6727784"><ele>486.91</ele><time>2026-04-05T18:24:17.000Z</time></trkpt>
        <trkpt lat="28.7451708" lon="104.6727229"><ele>485.71</ele><time>2026-04-05T18:24:25.000Z</time></trkpt>
        <trkpt lat="28.7450748" lon="104.672684"><ele>484.86</ele><time>2026-04-05T18:24:33.000Z</time></trkpt>
        <trkpt lat="28.7449816" lon="104.6726456"><ele>484.93</ele><time>2026-04-05T18:24:41.000Z</time></trkpt>
        <trkpt lat="28.7448865" lon="104.6726014"><ele>485.49</ele><time>2026-04-05T18:24:51.000Z</time></trkpt>
        <trkpt lat="28.7448474" lon="104.6725137"><ele>486.1</ele><time>2026-04-05T18:25:03.000Z</time></trkpt>
        <trkpt lat="28.7448496" lon="104.6723975"><ele>486.75</ele><time>2026-04-05T18:25:31.000Z</time></trkpt>
        <trkpt lat="28.7449024" lon="104.6722802"><ele>487.28</ele><time>2026-04-05T18:25:41.000Z</time></trkpt>
        <trkpt lat="28.7449711" lon="104.6721715"><ele>488.88</ele><time>2026-04-05T18:25:51.000Z</time></trkpt>
        <trkpt lat="28.7450298" lon="104.6720762"><ele>489.41</ele><time>2026-04-05T18:25:59.000Z</time></trkpt>
        <trkpt lat="28.7450856" lon="104.6719802"><ele>490.06</ele><time>2026-04-05T18:26:07.000Z</time></trkpt>
        <trkpt lat="28.7451386" lon="104.6718705"><ele>490.54</ele><time>2026-04-05T18:26:17.000Z</time></trkpt>
        <trkpt lat="28.745172" lon="104.6717489"><ele>490.8</ele><time>2026-04-05T18:26:25.000Z</time></trkpt>
        <trkpt lat="28.7451607" lon="104.6716175"><ele>489.66</ele><time>2026-04-05T18:26:33.000Z</time></trkpt>
        <trkpt lat="28.7451085" lon="104.6715087"><ele>488.48</ele><time>2026-04-05T18:26:41.000Z</time></trkpt>
        <trkpt lat="28.7450344" lon="104.6714305"><ele>487.42</ele><time>2026-04-05T18:26:49.000Z</time></trkpt>
        <trkpt lat="28.7449503" lon="104.6713768"><ele>486.56</ele><time>2026-04-05T18:26:59.000Z</time></trkpt>
        <trkpt lat="28.7448678" lon="104.6713182"><ele>486.23</ele><time>2026-04-05T18:27:13.000Z</time></trkpt>
        <trkpt lat="28.7447764" lon="104.6712846"><ele>487.34</ele><time>2026-04-05T18:27:23.000Z</time></trkpt>
        <trkpt lat="28.7446856" lon="104.6712529"><ele>488.69</ele><time>2026-04-05T18:27:33.000Z</time></trkpt>
        <trkpt lat="28.7445978" lon="104.6712164"><ele>489.93</ele><time>2026-04-05T18:27:43.000Z</time></trkpt>
        <trkpt lat="28.7445078" lon="104.671165"><ele>491.56</ele><time>2026-04-05T18:27:53.000Z</time></trkpt>
        <trkpt lat="28.7444213" lon="104.6710953"><ele>493.03</ele><time>2026-04-05T18:28:03.000Z</time></trkpt>
        <trkpt lat="28.7443436" lon="104.6710158"><ele>494.89</ele><time>2026-04-05T18:28:13.000Z</time></trkpt>
        <trkpt lat="28.7442708" lon="104.6709292"><ele>496.74</ele><time>2026-04-05T18:28:23.000Z</time></trkpt>
        <trkpt lat="28.7442202" lon="104.670836"><ele>498.49</ele><time>2026-04-05T18:28:31.000Z</time></trkpt>
        <trkpt lat="28.7441554" lon="104.6707586"><ele>499.3</ele><time>2026-04-05T18:28:39.000Z</time></trkpt>
        <trkpt lat="28.744118" lon="104.6706647"><ele>500.23</ele><time>2026-04-05T18:28:47.000Z</time></trkpt>
        <trkpt lat="28.7440821" lon="104.6705684"><ele>501.41</ele><time>2026-04-05T18:28:57.000Z</time></trkpt>
        <trkpt lat="28.7440605" lon="104.670466"><ele>502.22</ele><time>2026-04-05T18:29:05.000Z</time></trkpt>
        <trkpt lat="28.7440327" lon="104.670365"><ele>502.7</ele><time>2026-04-05T18:29:13.000Z</time></trkpt>
        <trkpt lat="28.743994" lon="104.6702662"><ele>503.41</ele><time>2026-04-05T18:29:23.000Z</time></trkpt>
        <trkpt lat="28.743957" lon="104.6701633"><ele>504.58</ele><time>2026-04-05T18:29:33.000Z</time></trkpt>
        <trkpt lat="28.7439294" lon="104.6700451"><ele>506.07</ele><time>2026-04-05T18:29:43.000Z</time></trkpt>
        <trkpt lat="28.7439248" lon="104.6699315"><ele>507.58</ele><time>2026-04-05T18:29:53.000Z</time></trkpt>
        <trkpt lat="28.7439218" lon="104.6698786"><ele>508.8</ele><time>2026-04-05T18:29:57.000Z</time></trkpt>
        <trkpt lat="28.7438573" lon="104.6698124"><ele>509.92</ele><time>2026-04-05T18:30:15.000Z</time></trkpt>
        <trkpt lat="28.7437636" lon="104.6697831"><ele>509.24</ele><time>2026-04-05T18:30:23.000Z</time></trkpt>
        <trkpt lat="28.743694" lon="104.6697534"><ele>508.72</ele><time>2026-04-05T18:30:35.000Z</time></trkpt>
        <trkpt lat="28.743694" lon="104.6697534"><ele>508.72</ele><time>2026-04-05T18:31:22.000Z</time></trkpt>
      </trkseg>
      <trkseg>
        <trkpt lat="28.7438882" lon="104.6698512"><ele>513.88</ele><time>2026-04-05T19:29:19.000Z</time></trkpt>
        <trkpt lat="28.7438882" lon="104.6698512"><ele>513.88</ele><time>2026-04-05T19:29:23.000Z</time></trkpt>
        <trkpt lat="28.7439205" lon="104.6697658"><ele>513.88</ele><time>2026-04-05T19:29:53.000Z</time></trkpt>
        <trkpt lat="28.7439304" lon="104.6696482"><ele>515.76</ele><time>2026-04-05T19:30:05.000Z</time></trkpt>
        <trkpt lat="28.7439029" lon="104.6695281"><ele>517.15</ele><time>2026-04-05T19:30:15.000Z</time></trkpt>
        <trkpt lat="28.7438387" lon="104.6694269"><ele>518.29</ele><time>2026-04-05T19:30:25.000Z</time></trkpt>
        <trkpt lat="28.7437524" lon="104.6693416"><ele>518.59</ele><time>2026-04-05T19:30:35.000Z</time></trkpt>
        <trkpt lat="28.7436747" lon="104.6692457"><ele>519.27</ele><time>2026-04-05T19:30:45.000Z</time></trkpt>
        <trkpt lat="28.7436324" lon="104.669147"><ele>520.39</ele><time>2026-04-05T19:30:53.000Z</time></trkpt>
        <trkpt lat="28.7436059" lon="104.6690432"><ele>521.91</ele><time>2026-04-05T19:31:01.000Z</time></trkpt>
        <trkpt lat="28.7435603" lon="104.6689537"><ele>523.32</ele><time>2026-04-05T19:31:09.000Z</time></trkpt>
        <trkpt lat="28.7435586" lon="104.6688558"><ele>524.16</ele><time>2026-04-05T19:31:17.000Z</time></trkpt>
        <trkpt lat="28.7435744" lon="104.6687477"><ele>524.8</ele><time>2026-04-05T19:31:25.000Z</time></trkpt>
        <trkpt lat="28.7435134" lon="104.6687143"><ele>525.28</ele><time>2026-04-05T19:31:41.000Z</time></trkpt>
        <trkpt lat="28.7435272" lon="104.6686405"><ele>525.37</ele><time>2026-04-05T19:31:47.000Z</time></trkpt>
        <trkpt lat="28.7435997" lon="104.6685585"><ele>526.62</ele><time>2026-04-05T19:31:55.000Z</time></trkpt>
        <trkpt lat="28.7436917" lon="104.6684771"><ele>527.42</ele><time>2026-04-05T19:32:05.000Z</time></trkpt>
        <trkpt lat="28.7437624" lon="104.6683874"><ele>527.95</ele><time>2026-04-05T19:32:13.000Z</time></trkpt>
        <trkpt lat="28.7438291" lon="104.6682843"><ele>528.8</ele><time>2026-04-05T19:32:23.000Z</time></trkpt>
        <trkpt lat="28.7438876" lon="104.6681943"><ele>530.3</ele><time>2026-04-05T19:32:31.000Z</time></trkpt>
        <trkpt lat="28.7439476" lon="104.6681027"><ele>532.08</ele><time>2026-04-05T19:32:41.000Z</time></trkpt>
        <trkpt lat="28.7440093" lon="104.6680083"><ele>533.93</ele><time>2026-04-05T19:32:53.000Z</time></trkpt>
        <trkpt lat="28.7440711" lon="104.6679204"><ele>535.8</ele><time>2026-04-05T19:33:07.000Z</time></trkpt>
        <trkpt lat="28.7440856" lon="104.6678216"><ele>538.39</ele><time>2026-04-05T19:33:19.000Z</time></trkpt>
        <trkpt lat="28.7440306" lon="104.6677426"><ele>540.47</ele><time>2026-04-05T19:33:31.000Z</time></trkpt>
        <trkpt lat="28.7439494" lon="104.6676807"><ele>542.52</ele><time>2026-04-05T19:33:43.000Z</time></trkpt>
        <trkpt lat="28.7438512" lon="104.6676472"><ele>544.51</ele><time>2026-04-05T19:33:55.000Z</time></trkpt>
        <trkpt lat="28.7437619" lon="104.6676045"><ele>545.6</ele><time>2026-04-05T19:34:05.000Z</time></trkpt>
        <trkpt lat="28.7436887" lon="104.6675297"><ele>546.01</ele><time>2026-04-05T19:34:15.000Z</time></trkpt>
        <trkpt lat="28.7436534" lon="104.6674304"><ele>546.14</ele><time>2026-04-05T19:34:23.000Z</time></trkpt>
        <trkpt lat="28.7436613" lon="104.6673227"><ele>546.1</ele><time>2026-04-05T19:34:31.000Z</time></trkpt>
        <trkpt lat="28.7437224" lon="104.6672392"><ele>546.33</ele><time>2026-04-05T19:34:39.000Z</time></trkpt>
        <trkpt lat="28.7437868" lon="104.6671553"><ele>546.03</ele><time>2026-04-05T19:34:47.000Z</time></trkpt>
        <trkpt lat="28.743846" lon="104.6670661"><ele>545.54</ele><time>2026-04-05T19:34:55.000Z</time></trkpt>
        <trkpt lat="28.7438832" lon="104.6669645"><ele>545.16</ele><time>2026-04-05T19:35:03.000Z</time></trkpt>
        <trkpt lat="28.7438943" lon="104.666846"><ele>544.29</ele><time>2026-04-05T19:35:11.000Z</time></trkpt>
        <trkpt lat="28.7438441" lon="104.6667415"><ele>544.64</ele><time>2026-04-05T19:35:21.000Z</time></trkpt>
        <trkpt lat="28.7437507" lon="104.6666762"><ele>544.72</ele><time>2026-04-05T19:35:31.000Z</time></trkpt>
        <trkpt lat="28.7436476" lon="104.6666422"><ele>544.55</ele><time>2026-04-05T19:35:41.000Z</time></trkpt>
        <trkpt lat="28.7435451" lon="104.6666014"><ele>544.44</ele><time>2026-04-05T19:35:51.000Z</time></trkpt>
        <trkpt lat="28.7434602" lon="104.6665241"><ele>543.87</ele><time>2026-04-05T19:36:01.000Z</time></trkpt>
        <trkpt lat="28.7434182" lon="104.6664159"><ele>543.25</ele><time>2026-04-05T19:36:11.000Z</time></trkpt>
        <trkpt lat="28.7434003" lon="104.6663047"><ele>543.59</ele><time>2026-04-05T19:36:21.000Z</time></trkpt>
        <trkpt lat="28.7433998" lon="104.6661911"><ele>543.62</ele><time>2026-04-05T19:36:31.000Z</time></trkpt>
        <trkpt lat="28.7433931" lon="104.6660748"><ele>543.63</ele><time>2026-04-05T19:36:41.000Z</time></trkpt>
        <trkpt lat="28.7434147" lon="104.6659541"><ele>543.33</ele><time>2026-04-05T19:36:51.000Z</time></trkpt>
        <trkpt lat="28.7434485" lon="104.665837"><ele>543</ele><time>2026-04-05T19:37:01.000Z</time></trkpt>
        <trkpt lat="28.7434498" lon="104.6657308"><ele>542.82</ele><time>2026-04-05T19:37:11.000Z</time></trkpt>
        <trkpt lat="28.7433876" lon="104.6656488"><ele>542.46</ele><time>2026-04-05T19:37:21.000Z</time></trkpt>
        <trkpt lat="28.7432959" lon="104.6656108"><ele>542.21</ele><time>2026-04-05T19:37:29.000Z</time></trkpt>
        <trkpt lat="28.7431989" lon="104.6655481"><ele>541.82</ele><time>2026-04-05T19:37:39.000Z</time></trkpt>
        <trkpt lat="28.7431133" lon="104.6654678"><ele>541.6</ele><time>2026-04-05T19:37:49.000Z</time></trkpt>
        <trkpt lat="28.7430502" lon="104.6653742"><ele>540.41</ele><time>2026-04-05T19:37:57.000Z</time></trkpt>
        <trkpt lat="28.7429878" lon="104.6652726"><ele>539.4</ele><time>2026-04-05T19:38:07.000Z</time></trkpt>
        <trkpt lat="28.7429339" lon="104.6651704"><ele>538.47</ele><time>2026-04-05T19:38:17.000Z</time></trkpt>
        <trkpt lat="28.7428681" lon="104.6652026"><ele>538.21</ele><time>2026-04-05T19:38:41.000Z</time></trkpt>
        <trkpt lat="28.7428186" lon="104.665137"><ele>537.52</ele><time>2026-04-05T19:38:55.000Z</time></trkpt>
        <trkpt lat="28.7427625" lon="104.66519"><ele>537.53</ele><time>2026-04-05T19:39:03.000Z</time></trkpt>
        <trkpt lat="28.7427302" lon="104.6652697"><ele>537.39</ele><time>2026-04-05T19:39:11.000Z</time></trkpt>
        <trkpt lat="28.7426594" lon="104.6653469"><ele>538.73</ele><time>2026-04-05T19:39:33.000Z</time></trkpt>
        <trkpt lat="28.7425764" lon="104.6654284"><ele>541.89</ele><time>2026-04-05T19:39:43.000Z</time></trkpt>
        <trkpt lat="28.7424869" lon="104.6654871"><ele>544.57</ele><time>2026-04-05T19:39:53.000Z</time></trkpt>
        <trkpt lat="28.7424236" lon="104.6654796"><ele>547.56</ele><time>2026-04-05T19:40:01.000Z</time></trkpt>
        <trkpt lat="28.7424172" lon="104.6653883"><ele>550.11</ele><time>2026-04-05T19:40:11.000Z</time></trkpt>
        <trkpt lat="28.7424661" lon="104.6652859"><ele>552.69</ele><time>2026-04-05T19:40:19.000Z</time></trkpt>
        <trkpt lat="28.7425023" lon="104.6651625"><ele>554.31</ele><time>2026-04-05T19:40:29.000Z</time></trkpt>
        <trkpt lat="28.7425916" lon="104.6650954"><ele>556.05</ele><time>2026-04-05T19:40:39.000Z</time></trkpt>
        <trkpt lat="28.7426666" lon="104.6650095"><ele>555.97</ele><time>2026-04-05T19:40:47.000Z</time></trkpt>
        <trkpt lat="28.7427268" lon="104.6649153"><ele>557.06</ele><time>2026-04-05T19:40:55.000Z</time></trkpt>
        <trkpt lat="28.7427851" lon="104.6648154"><ele>557.64</ele><time>2026-04-05T19:41:03.000Z</time></trkpt>
        <trkpt lat="28.7428355" lon="104.6647043"><ele>558.05</ele><time>2026-04-05T19:41:11.000Z</time></trkpt>
        <trkpt lat="28.7428777" lon="104.6646008"><ele>559.38</ele><time>2026-04-05T19:41:19.000Z</time></trkpt>
        <trkpt lat="28.7429164" lon="104.6645001"><ele>559.75</ele><time>2026-04-05T19:41:27.000Z</time></trkpt>
        <trkpt lat="28.7429657" lon="104.6643932"><ele>559.96</ele><time>2026-04-05T19:41:37.000Z</time></trkpt>
        <trkpt lat="28.7430078" lon="104.6642775"><ele>558.86</ele><time>2026-04-05T19:41:47.000Z</time></trkpt>
        <trkpt lat="28.7430791" lon="104.6642053"><ele>557.77</ele><time>2026-04-05T19:41:55.000Z</time></trkpt>
        <trkpt lat="28.7431604" lon="104.6641496"><ele>556.59</ele><time>2026-04-05T19:42:05.000Z</time></trkpt>
        <trkpt lat="28.7431914" lon="104.6640523"><ele>555.58</ele><time>2026-04-05T19:42:17.000Z</time></trkpt>
        <trkpt lat="28.7432456" lon="104.663964"><ele>554.07</ele><time>2026-04-05T19:42:25.000Z</time></trkpt>
        <trkpt lat="28.7433366" lon="104.6638896"><ele>553.96</ele><time>2026-04-05T19:42:35.000Z</time></trkpt>
        <trkpt lat="28.7434114" lon="104.66379"><ele>553.46</ele><time>2026-04-05T19:42:43.000Z</time></trkpt>
        <trkpt lat="28.7434234" lon="104.6636762"><ele>552.1</ele><time>2026-04-05T19:42:55.000Z</time></trkpt>
        <trkpt lat="28.7434057" lon="104.6635616"><ele>551.84</ele><time>2026-04-05T19:43:07.000Z</time></trkpt>
        <trkpt lat="28.7434041" lon="104.6634523"><ele>552.44</ele><time>2026-04-05T19:43:19.000Z</time></trkpt>
        <trkpt lat="28.7434013" lon="104.663332"><ele>553.61</ele><time>2026-04-05T19:43:29.000Z</time></trkpt>
        <trkpt lat="28.7433266" lon="104.6632767"><ele>554.88</ele><time>2026-04-05T19:43:41.000Z</time></trkpt>
        <trkpt lat="28.7432226" lon="104.6632622"><ele>557.21</ele><time>2026-04-05T19:43:59.000Z</time></trkpt>
        <trkpt lat="28.743113" lon="104.6632505"><ele>558.53</ele><time>2026-04-05T19:44:07.000Z</time></trkpt>
        <trkpt lat="28.7430093" lon="104.6632471"><ele>559.3</ele><time>2026-04-05T19:44:15.000Z</time></trkpt>
        <trkpt lat="28.7428988" lon="104.6632357"><ele>559.6</ele><time>2026-04-05T19:44:25.000Z</time></trkpt>
        <trkpt lat="28.7428504" lon="104.6632185"><ele>560.88</ele><time>2026-04-05T19:44:31.000Z</time></trkpt>
        <trkpt lat="28.742833" lon="104.6631328"><ele>562</ele><time>2026-04-05T19:44:41.000Z</time></trkpt>
        <trkpt lat="28.7428157" lon="104.663012"><ele>564.17</ele><time>2026-04-05T19:44:51.000Z</time></trkpt>
        <trkpt lat="28.7427818" lon="104.6628889"><ele>565.91</ele><time>2026-04-05T19:45:01.000Z</time></trkpt>
        <trkpt lat="28.7427476" lon="104.6627717"><ele>566.99</ele><time>2026-04-05T19:45:11.000Z</time></trkpt>
        <trkpt lat="28.7427102" lon="104.6626672"><ele>568.4</ele><time>2026-04-05T19:45:19.000Z</time></trkpt>
        <trkpt lat="28.7426855" lon="104.6625606"><ele>570.65</ele><time>2026-04-05T19:45:29.000Z</time></trkpt>
        <trkpt lat="28.7426805" lon="104.662449"><ele>573.03</ele><time>2026-04-05T19:45:39.000Z</time></trkpt>
        <trkpt lat="28.7426606" lon="104.6623347"><ele>574.57</ele><time>2026-04-05T19:45:51.000Z</time></trkpt>
        <trkpt lat="28.7426327" lon="104.662229"><ele>576.39</ele><time>2026-04-05T19:46:01.000Z</time></trkpt>
        <trkpt lat="28.7425926" lon="104.6621272"><ele>578.18</ele><time>2026-04-05T19:46:11.000Z</time></trkpt>
        <trkpt lat="28.7425449" lon="104.6620734"><ele>577.2</ele><time>2026-04-05T19:46:19.000Z</time></trkpt>
        <trkpt lat="28.7425874" lon="104.6621251"><ele>574.57</ele><time>2026-04-05T19:46:29.000Z</time></trkpt>
        <trkpt lat="28.7426178" lon="104.6621767"><ele>571.89</ele><time>2026-04-05T19:46:35.000Z</time></trkpt>
        <trkpt lat="28.7426655" lon="104.6622912"><ele>569.98</ele><time>2026-04-05T19:46:47.000Z</time></trkpt>
        <trkpt lat="28.7427106" lon="104.6624206"><ele>571.23</ele><time>2026-04-05T19:46:55.000Z</time></trkpt>
        <trkpt lat="28.7427267" lon="104.6623688"><ele>571.16</ele><time>2026-04-05T19:47:07.000Z</time></trkpt>
        <trkpt lat="28.7427371" lon="104.662254"><ele>571.04</ele><time>2026-04-05T19:47:17.000Z</time></trkpt>
        <trkpt lat="28.7427678" lon="104.6621227"><ele>570.59</ele><time>2026-04-05T19:47:27.000Z</time></trkpt>
        <trkpt lat="28.742787" lon="104.6619989"><ele>570.08</ele><time>2026-04-05T19:47:35.000Z</time></trkpt>
        <trkpt lat="28.742831" lon="104.661901"><ele>571.68</ele><time>2026-04-05T19:47:43.000Z</time></trkpt>
        <trkpt lat="28.742879" lon="104.6618061"><ele>573.18</ele><time>2026-04-05T19:47:51.000Z</time></trkpt>
        <trkpt lat="28.7428383" lon="104.661729"><ele>573.19</ele><time>2026-04-05T19:48:01.000Z</time></trkpt>
        <trkpt lat="28.7427462" lon="104.6617016"><ele>572.79</ele><time>2026-04-05T19:48:09.000Z</time></trkpt>
        <trkpt lat="28.7426351" lon="104.661691"><ele>573.3</ele><time>2026-04-05T19:48:17.000Z</time></trkpt>
        <trkpt lat="28.7425224" lon="104.6617101"><ele>572.98</ele><time>2026-04-05T19:48:25.000Z</time></trkpt>
        <trkpt lat="28.7424175" lon="104.6617548"><ele>572.35</ele><time>2026-04-05T19:48:33.000Z</time></trkpt>
        <trkpt lat="28.7423178" lon="104.6618021"><ele>571.92</ele><time>2026-04-05T19:48:41.000Z</time></trkpt>
        <trkpt lat="28.7422171" lon="104.6618463"><ele>573.95</ele><time>2026-04-05T19:48:49.000Z</time></trkpt>
        <trkpt lat="28.7421212" lon="104.661859"><ele>575.19</ele><time>2026-04-05T19:48:57.000Z</time></trkpt>
        <trkpt lat="28.7420692" lon="104.6618648"><ele>576.5</ele><time>2026-04-05T19:49:09.000Z</time></trkpt>
        <trkpt lat="28.7420149" lon="104.6619431"><ele>575.38</ele><time>2026-04-05T19:49:41.000Z</time></trkpt>
        <trkpt lat="28.7419266" lon="104.6619904"><ele>577.2</ele><time>2026-04-05T19:49:49.000Z</time></trkpt>
        <trkpt lat="28.7418323" lon="104.661986"><ele>577.36</ele><time>2026-04-05T19:49:55.000Z</time></trkpt>
        <trkpt lat="28.7417324" lon="104.6619419"><ele>578.14</ele><time>2026-04-05T19:50:05.000Z</time></trkpt>
        <trkpt lat="28.7416333" lon="104.6618951"><ele>579.12</ele><time>2026-04-05T19:50:15.000Z</time></trkpt>
        <trkpt lat="28.7415382" lon="104.6618385"><ele>580.73</ele><time>2026-04-05T19:50:25.000Z</time></trkpt>
        <trkpt lat="28.741452" lon="104.6617709"><ele>581.94</ele><time>2026-04-05T19:50:53.000Z</time></trkpt>
        <trkpt lat="28.7413579" lon="104.6617363"><ele>582.11</ele><time>2026-04-05T19:51:07.000Z</time></trkpt>
        <trkpt lat="28.7413851" lon="104.6616688"><ele>581.87</ele><time>2026-04-05T19:51:13.000Z</time></trkpt>
        <trkpt lat="28.7414127" lon="104.6616251"><ele>582.43</ele><time>2026-04-05T19:51:23.000Z</time></trkpt>
        <trkpt lat="28.7413607" lon="104.6615733"><ele>585.26</ele><time>2026-04-05T19:51:35.000Z</time></trkpt>
        <trkpt lat="28.7412748" lon="104.6615318"><ele>587.57</ele><time>2026-04-05T19:51:45.000Z</time></trkpt>
        <trkpt lat="28.7411689" lon="104.6614947"><ele>589.23</ele><time>2026-04-05T19:51:57.000Z</time></trkpt>
        <trkpt lat="28.741076" lon="104.66144"><ele>590.7</ele><time>2026-04-05T19:52:05.000Z</time></trkpt>
        <trkpt lat="28.7409886" lon="104.6613838"><ele>591.44</ele><time>2026-04-05T19:52:15.000Z</time></trkpt>
        <trkpt lat="28.7408974" lon="104.6613346"><ele>592.86</ele><time>2026-04-05T19:52:25.000Z</time></trkpt>
        <trkpt lat="28.7408078" lon="104.6612993"><ele>594.02</ele><time>2026-04-05T19:52:33.000Z</time></trkpt>
        <trkpt lat="28.7407099" lon="104.6612616"><ele>594.84</ele><time>2026-04-05T19:52:43.000Z</time></trkpt>
        <trkpt lat="28.7406152" lon="104.6612366"><ele>595.35</ele><time>2026-04-05T19:52:51.000Z</time></trkpt>
        <trkpt lat="28.740527" lon="104.6611827"><ele>596.3</ele><time>2026-04-05T19:52:59.000Z</time></trkpt>
        <trkpt lat="28.740468" lon="104.6610975"><ele>596.88</ele><time>2026-04-05T19:53:07.000Z</time></trkpt>
        <trkpt lat="28.7404649" lon="104.6609872"><ele>596.5</ele><time>2026-04-05T19:53:15.000Z</time></trkpt>
        <trkpt lat="28.7405209" lon="104.66088"><ele>595.18</ele><time>2026-04-05T19:53:23.000Z</time></trkpt>
        <trkpt lat="28.7405677" lon="104.6607631"><ele>593.92</ele><time>2026-04-05T19:53:31.000Z</time></trkpt>
        <trkpt lat="28.740588" lon="104.6606437"><ele>594.47</ele><time>2026-04-05T19:53:39.000Z</time></trkpt>
        <trkpt lat="28.7405839" lon="104.660535"><ele>594.73</ele><time>2026-04-05T19:53:47.000Z</time></trkpt>
        <trkpt lat="28.7405549" lon="104.6604286"><ele>594.59</ele><time>2026-04-05T19:53:55.000Z</time></trkpt>
        <trkpt lat="28.7405521" lon="104.6603027"><ele>595.57</ele><time>2026-04-05T19:54:05.000Z</time></trkpt>
        <trkpt lat="28.7405773" lon="104.6601836"><ele>596.04</ele><time>2026-04-05T19:54:13.000Z</time></trkpt>
        <trkpt lat="28.7406032" lon="104.6600643"><ele>595.29</ele><time>2026-04-05T19:54:23.000Z</time></trkpt>
        <trkpt lat="28.7406015" lon="104.6599512"><ele>594.8</ele><time>2026-04-05T19:54:31.000Z</time></trkpt>
        <trkpt lat="28.740557" lon="104.6598628"><ele>593.56</ele><time>2026-04-05T19:54:39.000Z</time></trkpt>
        <trkpt lat="28.7404865" lon="104.6597854"><ele>591.76</ele><time>2026-04-05T19:54:47.000Z</time></trkpt>
        <trkpt lat="28.7404267" lon="104.6597018"><ele>590.84</ele><time>2026-04-05T19:54:55.000Z</time></trkpt>
        <trkpt lat="28.7403609" lon="104.659623"><ele>590.35</ele><time>2026-04-05T19:55:03.000Z</time></trkpt>
        <trkpt lat="28.7403028" lon="104.6595307"><ele>590.22</ele><time>2026-04-05T19:55:11.000Z</time></trkpt>
        <trkpt lat="28.740237" lon="104.6594522"><ele>590.11</ele><time>2026-04-05T19:55:19.000Z</time></trkpt>
        <trkpt lat="28.7401548" lon="104.6594036"><ele>589.74</ele><time>2026-04-05T19:55:27.000Z</time></trkpt>
        <trkpt lat="28.7400652" lon="104.6593656"><ele>589.76</ele><time>2026-04-05T19:55:35.000Z</time></trkpt>
        <trkpt lat="28.7399771" lon="104.659318"><ele>590.74</ele><time>2026-04-05T19:55:43.000Z</time></trkpt>
        <trkpt lat="28.7398888" lon="104.6592569"><ele>592.15</ele><time>2026-04-05T19:55:51.000Z</time></trkpt>
        <trkpt lat="28.7397912" lon="104.6592182"><ele>592.84</ele><time>2026-04-05T19:55:59.000Z</time></trkpt>
        <trkpt lat="28.7396912" lon="104.6591904"><ele>592.64</ele><time>2026-04-05T19:56:07.000Z</time></trkpt>
        <trkpt lat="28.7396315" lon="104.6591039"><ele>592.52</ele><time>2026-04-05T19:56:17.000Z</time></trkpt>
        <trkpt lat="28.7396623" lon="104.658998"><ele>591.55</ele><time>2026-04-05T19:56:25.000Z</time></trkpt>
        <trkpt lat="28.7396969" lon="104.6588854"><ele>590.54</ele><time>2026-04-05T19:56:33.000Z</time></trkpt>
        <trkpt lat="28.739667" lon="104.6587939"><ele>589.97</ele><time>2026-04-05T19:56:43.000Z</time></trkpt>
        <trkpt lat="28.7395902" lon="104.6587499"><ele>590.49</ele><time>2026-04-05T19:56:51.000Z</time></trkpt>
        <trkpt lat="28.7394826" lon="104.6587378"><ele>590.74</ele><time>2026-04-05T19:57:01.000Z</time></trkpt>
        <trkpt lat="28.7393717" lon="104.6587516"><ele>591.46</ele><time>2026-04-05T19:57:11.000Z</time></trkpt>
        <trkpt lat="28.7392775" lon="104.6587926"><ele>591.96</ele><time>2026-04-05T19:57:19.000Z</time></trkpt>
        <trkpt lat="28.7391943" lon="104.6588566"><ele>592.27</ele><time>2026-04-05T19:57:27.000Z</time></trkpt>
        <trkpt lat="28.7391049" lon="104.6588951"><ele>592.12</ele><time>2026-04-05T19:57:35.000Z</time></trkpt>
        <trkpt lat="28.7390089" lon="104.6589077"><ele>591.77</ele><time>2026-04-05T19:57:43.000Z</time></trkpt>
        <trkpt lat="28.7389173" lon="104.658881"><ele>591.91</ele><time>2026-04-05T19:57:51.000Z</time></trkpt>
        <trkpt lat="28.7388412" lon="104.6588209"><ele>592.06</ele><time>2026-04-05T19:57:59.000Z</time></trkpt>
        <trkpt lat="28.7387709" lon="104.6587288"><ele>592.36</ele><time>2026-04-05T19:58:09.000Z</time></trkpt>
        <trkpt lat="28.7387135" lon="104.6586084"><ele>592.43</ele><time>2026-04-05T19:58:17.000Z</time></trkpt>
        <trkpt lat="28.7386473" lon="104.6585186"><ele>592.96</ele><time>2026-04-05T19:58:25.000Z</time></trkpt>
        <trkpt lat="28.7385734" lon="104.6584408"><ele>593.68</ele><time>2026-04-05T19:58:33.000Z</time></trkpt>
        <trkpt lat="28.7385072" lon="104.6583629"><ele>593.9</ele><time>2026-04-05T19:58:41.000Z</time></trkpt>
        <trkpt lat="28.7384563" lon="104.6582606"><ele>592.62</ele><time>2026-04-05T19:58:49.000Z</time></trkpt>
        <trkpt lat="28.7383797" lon="104.6581789"><ele>592</ele><time>2026-04-05T19:58:57.000Z</time></trkpt>
        <trkpt lat="28.7383184" lon="104.6580844"><ele>591.13</ele><time>2026-04-05T19:59:05.000Z</time></trkpt>
        <trkpt lat="28.7382428" lon="104.6580238"><ele>589.62</ele><time>2026-04-05T19:59:11.000Z</time></trkpt>
        <trkpt lat="28.7381409" lon="104.658013"><ele>588.26</ele><time>2026-04-05T19:59:21.000Z</time></trkpt>
        <trkpt lat="28.7380426" lon="104.6580223"><ele>587.96</ele><time>2026-04-05T19:59:29.000Z</time></trkpt>
        <trkpt lat="28.7379355" lon="104.6580333"><ele>587.57</ele><time>2026-04-05T19:59:39.000Z</time></trkpt>
        <trkpt lat="28.7378384" lon="104.6580199"><ele>586.7</ele><time>2026-04-05T19:59:47.000Z</time></trkpt>
        <trkpt lat="28.7377349" lon="104.6579971"><ele>586.1</ele><time>2026-04-05T19:59:55.000Z</time></trkpt>
        <trkpt lat="28.7376369" lon="104.6579718"><ele>585.05</ele><time>2026-04-05T20:00:03.000Z</time></trkpt>
        <trkpt lat="28.7375521" lon="104.6579591"><ele>584.31</ele><time>2026-04-05T20:00:13.000Z</time></trkpt>
        <trkpt lat="28.7374906" lon="104.65789"><ele>583.8</ele><time>2026-04-05T20:00:41.000Z</time></trkpt>
        <trkpt lat="28.7374191" lon="104.6578262"><ele>582.37</ele><time>2026-04-05T20:00:51.000Z</time></trkpt>
        <trkpt lat="28.7373604" lon="104.6577839"><ele>582.6</ele><time>2026-04-05T20:01:01.000Z</time></trkpt>
        <trkpt lat="28.7373364" lon="104.657692"><ele>583.49</ele><time>2026-04-05T20:01:15.000Z</time></trkpt>
        <trkpt lat="28.7372963" lon="104.6575901"><ele>582.67</ele><time>2026-04-05T20:01:27.000Z</time></trkpt>
        <trkpt lat="28.7372508" lon="104.6574912"><ele>582.91</ele><time>2026-04-05T20:01:39.000Z</time></trkpt>
        <trkpt lat="28.7371664" lon="104.6574611"><ele>583.9</ele><time>2026-04-05T20:02:25.000Z</time></trkpt>
        <trkpt lat="28.7370787" lon="104.6574914"><ele>585.84</ele><time>2026-04-05T20:02:47.000Z</time></trkpt>
        <trkpt lat="28.7369925" lon="104.6575547"><ele>589.47</ele><time>2026-04-05T20:03:03.000Z</time></trkpt>
        <trkpt lat="28.736903" lon="104.6576159"><ele>595.15</ele><time>2026-04-05T20:03:15.000Z</time></trkpt>
        <trkpt lat="28.7368226" lon="104.6576803"><ele>599.66</ele><time>2026-04-05T20:03:27.000Z</time></trkpt>
        <trkpt lat="28.736746" lon="104.6577476"><ele>601.53</ele><time>2026-04-05T20:03:37.000Z</time></trkpt>
        <trkpt lat="28.7366767" lon="104.6578188"><ele>603.75</ele><time>2026-04-05T20:04:05.000Z</time></trkpt>
        <trkpt lat="28.7366418" lon="104.657917"><ele>604.03</ele><time>2026-04-05T20:04:17.000Z</time></trkpt>
        <trkpt lat="28.73661" lon="104.6580207"><ele>605.32</ele><time>2026-04-05T20:04:29.000Z</time></trkpt>
        <trkpt lat="28.7365457" lon="104.6581029"><ele>605.4</ele><time>2026-04-05T20:04:41.000Z</time></trkpt>
        <trkpt lat="28.7364822" lon="104.6581802"><ele>604.08</ele><time>2026-04-05T20:04:57.000Z</time></trkpt>
        <trkpt lat="28.736391" lon="104.6582319"><ele>603.31</ele><time>2026-04-05T20:05:11.000Z</time></trkpt>
        <trkpt lat="28.7363012" lon="104.6582692"><ele>603.13</ele><time>2026-04-05T20:05:23.000Z</time></trkpt>
        <trkpt lat="28.7362028" lon="104.6583115"><ele>604.29</ele><time>2026-04-05T20:05:39.000Z</time></trkpt>
        <trkpt lat="28.7361029" lon="104.6583054"><ele>607.58</ele><time>2026-04-05T20:05:51.000Z</time></trkpt>
        <trkpt lat="28.7360026" lon="104.6582564"><ele>612.24</ele><time>2026-04-05T20:06:09.000Z</time></trkpt>
        <trkpt lat="28.7359167" lon="104.6581853"><ele>618.03</ele><time>2026-04-05T20:06:21.000Z</time></trkpt>
        <trkpt lat="28.7358293" lon="104.6581302"><ele>621.64</ele><time>2026-04-05T20:06:33.000Z</time></trkpt>
        <trkpt lat="28.7357718" lon="104.6580366"><ele>625.49</ele><time>2026-04-05T20:06:53.000Z</time></trkpt>
        <trkpt lat="28.7357157" lon="104.6579444"><ele>628.35</ele><time>2026-04-05T20:07:05.000Z</time></trkpt>
        <trkpt lat="28.7356622" lon="104.6578539"><ele>630.57</ele><time>2026-04-05T20:07:17.000Z</time></trkpt>
        <trkpt lat="28.735593" lon="104.6577734"><ele>631.96</ele><time>2026-04-05T20:07:29.000Z</time></trkpt>
        <trkpt lat="28.735543" lon="104.6576835"><ele>632.92</ele><time>2026-04-05T20:07:41.000Z</time></trkpt>
        <trkpt lat="28.7354606" lon="104.6576891"><ele>632.6</ele><time>2026-04-05T20:07:57.000Z</time></trkpt>
        <trkpt lat="28.7353836" lon="104.6577545"><ele>633.55</ele><time>2026-04-05T20:08:09.000Z</time></trkpt>
        <trkpt lat="28.7353325" lon="104.6576991"><ele>633.69</ele><time>2026-04-05T20:08:21.000Z</time></trkpt>
        <trkpt lat="28.7352844" lon="104.6575952"><ele>633.12</ele><time>2026-04-05T20:08:33.000Z</time></trkpt>
        <trkpt lat="28.7351944" lon="104.6575322"><ele>632.97</ele><time>2026-04-05T20:08:43.000Z</time></trkpt>
        <trkpt lat="28.7350898" lon="104.6574943"><ele>633.55</ele><time>2026-04-05T20:08:53.000Z</time></trkpt>
        <trkpt lat="28.734988" lon="104.6574747"><ele>633.16</ele><time>2026-04-05T20:09:01.000Z</time></trkpt>
        <trkpt lat="28.7349652" lon="104.6575294"><ele>634.02</ele><time>2026-04-05T20:09:11.000Z</time></trkpt>
        <trkpt lat="28.7349116" lon="104.6576073"><ele>634.63</ele><time>2026-04-05T20:10:07.000Z</time></trkpt>
        <trkpt lat="28.7348073" lon="104.6576378"><ele>632.35</ele><time>2026-04-05T20:10:17.000Z</time></trkpt>
        <trkpt lat="28.7346855" lon="104.6576431"><ele>631.25</ele><time>2026-04-05T20:10:25.000Z</time></trkpt>
        <trkpt lat="28.7345749" lon="104.6576697"><ele>631.55</ele><time>2026-04-05T20:10:37.000Z</time></trkpt>
        <trkpt lat="28.7344807" lon="104.6577234"><ele>630.82</ele><time>2026-04-05T20:10:47.000Z</time></trkpt>
        <trkpt lat="28.7344385" lon="104.6578157"><ele>629.31</ele><time>2026-04-05T20:10:59.000Z</time></trkpt>
        <trkpt lat="28.7343881" lon="104.6579135"><ele>629.59</ele><time>2026-04-05T20:11:13.000Z</time></trkpt>
        <trkpt lat="28.7343561" lon="104.6579589"><ele>630.01</ele><time>2026-04-05T20:11:19.000Z</time></trkpt>
        <trkpt lat="28.7342821" lon="104.6580039"><ele>630.6</ele><time>2026-04-05T20:11:33.000Z</time></trkpt>
        <trkpt lat="28.7342439" lon="104.6580716"><ele>631.29</ele><time>2026-04-05T20:11:43.000Z</time></trkpt>
        <trkpt lat="28.7341988" lon="104.658019"><ele>634.01</ele><time>2026-04-05T20:12:41.000Z</time></trkpt>
        <trkpt lat="28.7341469" lon="104.6579259"><ele>632.73</ele><time>2026-04-05T20:13:09.000Z</time></trkpt>
        <trkpt lat="28.7340907" lon="104.6578284"><ele>635.07</ele><time>2026-04-05T20:13:33.000Z</time></trkpt>
        <trkpt lat="28.7340966" lon="104.6577193"><ele>636.55</ele><time>2026-04-05T20:13:43.000Z</time></trkpt>
        <trkpt lat="28.7340783" lon="104.6576363"><ele>639.87</ele><time>2026-04-05T20:13:57.000Z</time></trkpt>
        <trkpt lat="28.7340608" lon="104.6575386"><ele>644.34</ele><time>2026-04-05T20:14:17.000Z</time></trkpt>
        <trkpt lat="28.7340636" lon="104.6574328"><ele>647.15</ele><time>2026-04-05T20:15:05.000Z</time></trkpt>
        <trkpt lat="28.7340722" lon="104.6573219"><ele>648.26</ele><time>2026-04-05T20:15:25.000Z</time></trkpt>
        <trkpt lat="28.7341304" lon="104.6572346"><ele>646.13</ele><time>2026-04-05T20:16:19.000Z</time></trkpt>
        <trkpt lat="28.7341544" lon="104.6571427"><ele>642.68</ele><time>2026-04-05T20:16:35.000Z</time></trkpt>
        <trkpt lat="28.7340952" lon="104.6570798"><ele>638.52</ele><time>2026-04-05T20:17:35.000Z</time></trkpt>
        <trkpt lat="28.7340211" lon="104.6570152"><ele>637.62</ele><time>2026-04-05T20:17:45.000Z</time></trkpt>
        <trkpt lat="28.7339432" lon="104.6569506"><ele>637.31</ele><time>2026-04-05T20:17:57.000Z</time></trkpt>
        <trkpt lat="28.733863" lon="104.6568773"><ele>638.45</ele><time>2026-04-05T20:18:11.000Z</time></trkpt>
        <trkpt lat="28.7337733" lon="104.6568165"><ele>640.33</ele><time>2026-04-05T20:18:21.000Z</time></trkpt>
        <trkpt lat="28.7338062" lon="104.6567614"><ele>641.26</ele><time>2026-04-05T20:18:51.000Z</time></trkpt>
        <trkpt lat="28.7338501" lon="104.6566716"><ele>644.05</ele><time>2026-04-05T20:19:05.000Z</time></trkpt>
        <trkpt lat="28.7339092" lon="104.6565737"><ele>648.26</ele><time>2026-04-05T20:19:25.000Z</time></trkpt>
        <trkpt lat="28.7339872" lon="104.6564916"><ele>653.85</ele><time>2026-04-05T20:19:37.000Z</time></trkpt>
        <trkpt lat="28.734056" lon="104.6564052"><ele>656.49</ele><time>2026-04-05T20:19:55.000Z</time></trkpt>
        <trkpt lat="28.7340898" lon="104.6563037"><ele>659.22</ele><time>2026-04-05T20:20:07.000Z</time></trkpt>
        <trkpt lat="28.734109" lon="104.6561888"><ele>661.91</ele><time>2026-04-05T20:20:17.000Z</time></trkpt>
        <trkpt lat="28.7341825" lon="104.6561323"><ele>663.44</ele><time>2026-04-05T20:20:27.000Z</time></trkpt>
        <trkpt lat="28.73423" lon="104.6561365"><ele>663.32</ele><time>2026-04-05T20:20:33.000Z</time></trkpt>
        <trkpt lat="28.7341387" lon="104.6561919"><ele>662.89</ele><time>2026-04-05T20:24:12.000Z</time></trkpt>
        <trkpt lat="28.7340853" lon="104.6562412"><ele>664.7</ele><time>2026-04-05T20:24:22.000Z</time></trkpt>
        <trkpt lat="28.7340457" lon="104.656156"><ele>665.12</ele><time>2026-04-05T20:25:02.000Z</time></trkpt>
        <trkpt lat="28.7339844" lon="104.6560648"><ele>666.16</ele><time>2026-04-05T20:25:16.000Z</time></trkpt>
        <trkpt lat="28.7339256" lon="104.6559572"><ele>666.26</ele><time>2026-04-05T20:25:28.000Z</time></trkpt>
        <trkpt lat="28.7338608" lon="104.6558567"><ele>664.75</ele><time>2026-04-05T20:25:38.000Z</time></trkpt>
        <trkpt lat="28.7337924" lon="104.6557628"><ele>663.3</ele><time>2026-04-05T20:25:50.000Z</time></trkpt>
        <trkpt lat="28.733733" lon="104.6556767"><ele>663.78</ele><time>2026-04-05T20:25:58.000Z</time></trkpt>
        <trkpt lat="28.7336687" lon="104.6556019"><ele>665.41</ele><time>2026-04-05T20:26:08.000Z</time></trkpt>
        <trkpt lat="28.733601" lon="104.655518"><ele>666.12</ele><time>2026-04-05T20:26:24.000Z</time></trkpt>
        <trkpt lat="28.7335216" lon="104.6554481"><ele>666.07</ele><time>2026-04-05T20:26:36.000Z</time></trkpt>
        <trkpt lat="28.7334509" lon="104.6553701"><ele>664.25</ele><time>2026-04-05T20:26:54.000Z</time></trkpt>
        <trkpt lat="28.7333711" lon="104.6553079"><ele>661.49</ele><time>2026-04-05T20:27:04.000Z</time></trkpt>
        <trkpt lat="28.7332884" lon="104.6553543"><ele>659.79</ele><time>2026-04-05T20:27:16.000Z</time></trkpt>
        <trkpt lat="28.7332106" lon="104.6554343"><ele>658.36</ele><time>2026-04-05T20:27:26.000Z</time></trkpt>
        <trkpt lat="28.7331181" lon="104.6555026"><ele>657.55</ele><time>2026-04-05T20:27:36.000Z</time></trkpt>
        <trkpt lat="28.7330268" lon="104.6555686"><ele>657.86</ele><time>2026-04-05T20:27:46.000Z</time></trkpt>
        <trkpt lat="28.7329376" lon="104.6556098"><ele>658.67</ele><time>2026-04-05T20:27:56.000Z</time></trkpt>
        <trkpt lat="28.732838" lon="104.6556066"><ele>658.88</ele><time>2026-04-05T20:28:08.000Z</time></trkpt>
        <trkpt lat="28.7327447" lon="104.6555611"><ele>660.07</ele><time>2026-04-05T20:28:30.000Z</time></trkpt>
        <trkpt lat="28.7326537" lon="104.6554888"><ele>660.85</ele><time>2026-04-05T20:28:40.000Z</time></trkpt>
        <trkpt lat="28.7325892" lon="104.6553913"><ele>661.2</ele><time>2026-04-05T20:28:52.000Z</time></trkpt>
        <trkpt lat="28.73257" lon="104.6552646"><ele>659.95</ele><time>2026-04-05T20:29:02.000Z</time></trkpt>
        <trkpt lat="28.7324928" lon="104.655252"><ele>658.66</ele><time>2026-04-05T20:29:12.000Z</time></trkpt>
        <trkpt lat="28.7323961" lon="104.6552301"><ele>657.32</ele><time>2026-04-05T20:29:22.000Z</time></trkpt>
        <trkpt lat="28.7322964" lon="104.655217"><ele>656.51</ele><time>2026-04-05T20:29:32.000Z</time></trkpt>
        <trkpt lat="28.7321921" lon="104.6552441"><ele>653.86</ele><time>2026-04-05T20:29:44.000Z</time></trkpt>
        <trkpt lat="28.7320868" lon="104.6552585"><ele>651.14</ele><time>2026-04-05T20:29:54.000Z</time></trkpt>
        <trkpt lat="28.7319824" lon="104.6552854"><ele>648.85</ele><time>2026-04-05T20:30:04.000Z</time></trkpt>
        <trkpt lat="28.7318744" lon="104.6553284"><ele>648.19</ele><time>2026-04-05T20:30:14.000Z</time></trkpt>
        <trkpt lat="28.7317815" lon="104.6553772"><ele>646.27</ele><time>2026-04-05T20:30:22.000Z</time></trkpt>
        <trkpt lat="28.7317037" lon="104.6553302"><ele>644.69</ele><time>2026-04-05T20:30:30.000Z</time></trkpt>
        <trkpt lat="28.7316578" lon="104.6552265"><ele>644.17</ele><time>2026-04-05T20:30:40.000Z</time></trkpt>
        <trkpt lat="28.7316178" lon="104.6551125"><ele>642.45</ele><time>2026-04-05T20:30:48.000Z</time></trkpt>
        <trkpt lat="28.7315727" lon="104.6549916"><ele>641.65</ele><time>2026-04-05T20:30:58.000Z</time></trkpt>
        <trkpt lat="28.7315298" lon="104.6548849"><ele>640.69</ele><time>2026-04-05T20:31:06.000Z</time></trkpt>
        <trkpt lat="28.7314949" lon="104.6547813"><ele>639.9</ele><time>2026-04-05T20:31:14.000Z</time></trkpt>
        <trkpt lat="28.7314894" lon="104.6546756"><ele>639.14</ele><time>2026-04-05T20:31:22.000Z</time></trkpt>
        <trkpt lat="28.7315025" lon="104.654562"><ele>638.86</ele><time>2026-04-05T20:31:30.000Z</time></trkpt>
        <trkpt lat="28.7315021" lon="104.6544536"><ele>638.48</ele><time>2026-04-05T20:31:38.000Z</time></trkpt>
        <trkpt lat="28.7314843" lon="104.6543484"><ele>637.89</ele><time>2026-04-05T20:31:46.000Z</time></trkpt>
        <trkpt lat="28.7314558" lon="104.6542435"><ele>636.36</ele><time>2026-04-05T20:31:54.000Z</time></trkpt>
        <trkpt lat="28.7314267" lon="104.6541208"><ele>636.25</ele><time>2026-04-05T20:32:04.000Z</time></trkpt>
        <trkpt lat="28.7314328" lon="104.6539937"><ele>635.9</ele><time>2026-04-05T20:32:12.000Z</time></trkpt>
        <trkpt lat="28.7314463" lon="104.653871"><ele>635.55</ele><time>2026-04-05T20:32:20.000Z</time></trkpt>
        <trkpt lat="28.7314572" lon="104.6537618"><ele>635.12</ele><time>2026-04-05T20:32:28.000Z</time></trkpt>
        <trkpt lat="28.7314745" lon="104.653649"><ele>634.19</ele><time>2026-04-05T20:32:36.000Z</time></trkpt>
        <trkpt lat="28.731495" lon="104.6535343"><ele>632.22</ele><time>2026-04-05T20:32:44.000Z</time></trkpt>
        <trkpt lat="28.7315225" lon="104.6534227"><ele>631.28</ele><time>2026-04-05T20:32:54.000Z</time></trkpt>
        <trkpt lat="28.7315631" lon="104.6533172"><ele>630</ele><time>2026-04-05T20:33:02.000Z</time></trkpt>
        <trkpt lat="28.731579" lon="104.6532136"><ele>630.01</ele><time>2026-04-05T20:33:12.000Z</time></trkpt>
        <trkpt lat="28.7315269" lon="104.6531333"><ele>629.51</ele><time>2026-04-05T20:33:28.000Z</time></trkpt>
        <trkpt lat="28.7314516" lon="104.653058"><ele>628.7</ele><time>2026-04-05T20:33:42.000Z</time></trkpt>
        <trkpt lat="28.7314077" lon="104.6529517"><ele>628.4</ele><time>2026-04-05T20:33:52.000Z</time></trkpt>
        <trkpt lat="28.7314124" lon="104.6528313"><ele>627.49</ele><time>2026-04-05T20:34:02.000Z</time></trkpt>
        <trkpt lat="28.731464" lon="104.6527401"><ele>624.37</ele><time>2026-04-05T20:34:10.000Z</time></trkpt>
        <trkpt lat="28.7315406" lon="104.6526608"><ele>620.11</ele><time>2026-04-05T20:34:18.000Z</time></trkpt>
        <trkpt lat="28.7315554" lon="104.6525562"><ele>616.2</ele><time>2026-04-05T20:34:28.000Z</time></trkpt>
        <trkpt lat="28.7315062" lon="104.6524677"><ele>615.24</ele><time>2026-04-05T20:34:38.000Z</time></trkpt>
        <trkpt lat="28.7314103" lon="104.6524793"><ele>615.75</ele><time>2026-04-05T20:34:50.000Z</time></trkpt>
        <trkpt lat="28.7313034" lon="104.6525038"><ele>615.98</ele><time>2026-04-05T20:35:00.000Z</time></trkpt>
        <trkpt lat="28.7312027" lon="104.6524826"><ele>616.87</ele><time>2026-04-05T20:35:10.000Z</time></trkpt>
        <trkpt lat="28.7311401" lon="104.652408"><ele>617.63</ele><time>2026-04-05T20:35:18.000Z</time></trkpt>
        <trkpt lat="28.7310993" lon="104.6523102"><ele>620.48</ele><time>2026-04-05T20:35:32.000Z</time></trkpt>
        <trkpt lat="28.73108" lon="104.652196"><ele>621</ele><time>2026-04-05T20:35:42.000Z</time></trkpt>
        <trkpt lat="28.7310476" lon="104.6520765"><ele>623.41</ele><time>2026-04-05T20:35:54.000Z</time></trkpt>
        <trkpt lat="28.7309941" lon="104.6519847"><ele>625.39</ele><time>2026-04-05T20:36:04.000Z</time></trkpt>
        <trkpt lat="28.7309404" lon="104.6518923"><ele>625.84</ele><time>2026-04-05T20:36:14.000Z</time></trkpt>
        <trkpt lat="28.7308778" lon="104.6518025"><ele>625.39</ele><time>2026-04-05T20:36:22.000Z</time></trkpt>
        <trkpt lat="28.7308068" lon="104.6517229"><ele>624.46</ele><time>2026-04-05T20:36:28.000Z</time></trkpt>
        <trkpt lat="28.7307556" lon="104.651623"><ele>623.13</ele><time>2026-04-05T20:36:38.000Z</time></trkpt>
        <trkpt lat="28.730812" lon="104.6515505"><ele>621.87</ele><time>2026-04-05T20:36:50.000Z</time></trkpt>
        <trkpt lat="28.7309175" lon="104.6515204"><ele>621.32</ele><time>2026-04-05T20:37:00.000Z</time></trkpt>
        <trkpt lat="28.7309388" lon="104.6514414"><ele>620.28</ele><time>2026-04-05T20:37:10.000Z</time></trkpt>
        <trkpt lat="28.7309227" lon="104.6513822"><ele>619.49</ele><time>2026-04-05T20:37:18.000Z</time></trkpt>
        <trkpt lat="28.7308477" lon="104.6513448"><ele>620.43</ele><time>2026-04-05T20:37:48.000Z</time></trkpt>
        <trkpt lat="28.7307578" lon="104.6513007"><ele>625.15</ele><time>2026-04-05T20:38:00.000Z</time></trkpt>
        <trkpt lat="28.7306668" lon="104.6512433"><ele>629.02</ele><time>2026-04-05T20:38:10.000Z</time></trkpt>
        <trkpt lat="28.7305758" lon="104.6511901"><ele>630.25</ele><time>2026-04-05T20:38:18.000Z</time></trkpt>
        <trkpt lat="28.7304841" lon="104.6511383"><ele>631.98</ele><time>2026-04-05T20:38:28.000Z</time></trkpt>
        <trkpt lat="28.7303847" lon="104.6510896"><ele>633.43</ele><time>2026-04-05T20:38:38.000Z</time></trkpt>
        <trkpt lat="28.7302924" lon="104.6510445"><ele>635.73</ele><time>2026-04-05T20:38:48.000Z</time></trkpt>
        <trkpt lat="28.7302117" lon="104.6509917"><ele>637.71</ele><time>2026-04-05T20:39:00.000Z</time></trkpt>
        <trkpt lat="28.7301161" lon="104.6509379"><ele>639.28</ele><time>2026-04-05T20:39:14.000Z</time></trkpt>
        <trkpt lat="28.7300078" lon="104.6509023"><ele>638.47</ele><time>2026-04-05T20:39:22.000Z</time></trkpt>
        <trkpt lat="28.7299093" lon="104.6508764"><ele>637.12</ele><time>2026-04-05T20:39:30.000Z</time></trkpt>
        <trkpt lat="28.7298093" lon="104.6508373"><ele>636.04</ele><time>2026-04-05T20:39:42.000Z</time></trkpt>
        <trkpt lat="28.7297649" lon="104.650826"><ele>635.86</ele><time>2026-04-05T20:39:48.000Z</time></trkpt>
        <trkpt lat="28.7296814" lon="104.6508035"><ele>636.93</ele><time>2026-04-05T20:40:02.000Z</time></trkpt>
        <trkpt lat="28.7295907" lon="104.6507694"><ele>638.42</ele><time>2026-04-05T20:40:10.000Z</time></trkpt>
        <trkpt lat="28.7294879" lon="104.6507421"><ele>639.56</ele><time>2026-04-05T20:40:20.000Z</time></trkpt>
        <trkpt lat="28.7293893" lon="104.6507356"><ele>640.24</ele><time>2026-04-05T20:40:28.000Z</time></trkpt>
        <trkpt lat="28.7292897" lon="104.650734"><ele>640.7</ele><time>2026-04-05T20:40:38.000Z</time></trkpt>
        <trkpt lat="28.7292314" lon="104.6506885"><ele>641.02</ele><time>2026-04-05T20:40:46.000Z</time></trkpt>
        <trkpt lat="28.7291595" lon="104.6506403"><ele>641.01</ele><time>2026-04-05T20:41:02.000Z</time></trkpt>
        <trkpt lat="28.7290747" lon="104.6506234"><ele>641.83</ele><time>2026-04-05T20:41:12.000Z</time></trkpt>
        <trkpt lat="28.7289834" lon="104.6506309"><ele>642.83</ele><time>2026-04-05T20:41:28.000Z</time></trkpt>
        <trkpt lat="28.7288863" lon="104.6506109"><ele>643.19</ele><time>2026-04-05T20:41:50.000Z</time></trkpt>
        <trkpt lat="28.7287919" lon="104.6505877"><ele>646.69</ele><time>2026-04-05T20:42:02.000Z</time></trkpt>
        <trkpt lat="28.7287021" lon="104.6505428"><ele>650.09</ele><time>2026-04-05T20:42:18.000Z</time></trkpt>
        <trkpt lat="28.7286407" lon="104.6504627"><ele>652.51</ele><time>2026-04-05T20:42:30.000Z</time></trkpt>
        <trkpt lat="28.7285848" lon="104.650367"><ele>654.27</ele><time>2026-04-05T20:42:42.000Z</time></trkpt>
        <trkpt lat="28.7285204" lon="104.6502854"><ele>655.96</ele><time>2026-04-05T20:42:52.000Z</time></trkpt>
        <trkpt lat="28.7284555" lon="104.6502093"><ele>656.44</ele><time>2026-04-05T20:43:02.000Z</time></trkpt>
        <trkpt lat="28.7283858" lon="104.6501276"><ele>657.07</ele><time>2026-04-05T20:43:12.000Z</time></trkpt>
        <trkpt lat="28.7283018" lon="104.6500759"><ele>657.77</ele><time>2026-04-05T20:43:22.000Z</time></trkpt>
        <trkpt lat="28.7282084" lon="104.6500295"><ele>658.12</ele><time>2026-04-05T20:43:32.000Z</time></trkpt>
        <trkpt lat="28.7281072" lon="104.6500061"><ele>660.1</ele><time>2026-04-05T20:43:42.000Z</time></trkpt>
        <trkpt lat="28.7280027" lon="104.6500372"><ele>662.14</ele><time>2026-04-05T20:43:54.000Z</time></trkpt>
        <trkpt lat="28.7279024" lon="104.6500718"><ele>661.72</ele><time>2026-04-05T20:44:02.000Z</time></trkpt>
        <trkpt lat="28.7278082" lon="104.650051"><ele>660</ele><time>2026-04-05T20:44:10.000Z</time></trkpt>
        <trkpt lat="28.7277194" lon="104.6500199"><ele>657.86</ele><time>2026-04-05T20:44:18.000Z</time></trkpt>
        <trkpt lat="28.7276483" lon="104.6499497"><ele>655.41</ele><time>2026-04-05T20:44:26.000Z</time></trkpt>
        <trkpt lat="28.7276053" lon="104.6498485"><ele>653.37</ele><time>2026-04-05T20:44:34.000Z</time></trkpt>
        <trkpt lat="28.7276197" lon="104.6497404"><ele>652.45</ele><time>2026-04-05T20:44:42.000Z</time></trkpt>
        <trkpt lat="28.7276256" lon="104.649625"><ele>651.99</ele><time>2026-04-05T20:44:52.000Z</time></trkpt>
        <trkpt lat="28.7275893" lon="104.6495289"><ele>652.54</ele><time>2026-04-05T20:45:02.000Z</time></trkpt>
        <trkpt lat="28.7275242" lon="104.6494553"><ele>654.65</ele><time>2026-04-05T20:45:10.000Z</time></trkpt>
        <trkpt lat="28.7274249" lon="104.6494363"><ele>656.59</ele><time>2026-04-05T20:45:20.000Z</time></trkpt>
        <trkpt lat="28.7273276" lon="104.6494722"><ele>658.71</ele><time>2026-04-05T20:45:28.000Z</time></trkpt>
        <trkpt lat="28.7272257" lon="104.6494885"><ele>661.39</ele><time>2026-04-05T20:45:36.000Z</time></trkpt>
        <trkpt lat="28.7271323" lon="104.6494937"><ele>663.23</ele><time>2026-04-05T20:45:46.000Z</time></trkpt>
        <trkpt lat="28.7270618" lon="104.6494086"><ele>663.67</ele><time>2026-04-05T20:47:16.000Z</time></trkpt>
        <trkpt lat="28.7269797" lon="104.6493486"><ele>664.74</ele><time>2026-04-05T20:47:30.000Z</time></trkpt>
        <trkpt lat="28.7269101" lon="104.6492698"><ele>666.29</ele><time>2026-04-05T20:47:50.000Z</time></trkpt>
        <trkpt lat="28.7268148" lon="104.6492574"><ele>669.17</ele><time>2026-04-05T20:48:14.000Z</time></trkpt>
        <trkpt lat="28.7267138" lon="104.6492407"><ele>672.59</ele><time>2026-04-05T20:48:26.000Z</time></trkpt>
        <trkpt lat="28.7266172" lon="104.6492215"><ele>675.9</ele><time>2026-04-05T20:48:36.000Z</time></trkpt>
        <trkpt lat="28.726524" lon="104.6492067"><ele>678.57</ele><time>2026-04-05T20:48:46.000Z</time></trkpt>
        <trkpt lat="28.7264391" lon="104.6491732"><ele>680.1</ele><time>2026-04-05T20:48:56.000Z</time></trkpt>
        <trkpt lat="28.726359" lon="104.6491191"><ele>680.39</ele><time>2026-04-05T20:49:06.000Z</time></trkpt>
        <trkpt lat="28.7262864" lon="104.6490532"><ele>680.18</ele><time>2026-04-05T20:49:16.000Z</time></trkpt>
        <trkpt lat="28.7262075" lon="104.6489779"><ele>679.99</ele><time>2026-04-05T20:49:28.000Z</time></trkpt>
        <trkpt lat="28.7261605" lon="104.6489336"><ele>679.64</ele><time>2026-04-05T20:49:34.000Z</time></trkpt>
        <trkpt lat="28.7260976" lon="104.6488776"><ele>679.51</ele><time>2026-04-05T20:49:44.000Z</time></trkpt>
        <trkpt lat="28.7260112" lon="104.6488398"><ele>679.3</ele><time>2026-04-05T20:49:58.000Z</time></trkpt>
        <trkpt lat="28.7259226" lon="104.6488062"><ele>678.65</ele><time>2026-04-05T20:50:14.000Z</time></trkpt>
        <trkpt lat="28.7258211" lon="104.6487705"><ele>679.95</ele><time>2026-04-05T20:50:28.000Z</time></trkpt>
        <trkpt lat="28.7257195" lon="104.6487226"><ele>681.76</ele><time>2026-04-05T20:50:38.000Z</time></trkpt>
        <trkpt lat="28.7256233" lon="104.6486558"><ele>682.86</ele><time>2026-04-05T20:50:48.000Z</time></trkpt>
        <trkpt lat="28.725541" lon="104.6485923"><ele>682.51</ele><time>2026-04-05T20:50:58.000Z</time></trkpt>
        <trkpt lat="28.7254549" lon="104.6485308"><ele>680.98</ele><time>2026-04-05T20:51:08.000Z</time></trkpt>
        <trkpt lat="28.725362" lon="104.6484954"><ele>679.62</ele><time>2026-04-05T20:51:16.000Z</time></trkpt>
        <trkpt lat="28.7252778" lon="104.6484487"><ele>679.31</ele><time>2026-04-05T20:51:24.000Z</time></trkpt>
        <trkpt lat="28.725204" lon="104.6483845"><ele>680.39</ele><time>2026-04-05T20:51:32.000Z</time></trkpt>
        <trkpt lat="28.7251559" lon="104.6483371"><ele>682.25</ele><time>2026-04-05T20:51:40.000Z</time></trkpt>
        <trkpt lat="28.7251006" lon="104.6483828"><ele>683.62</ele><time>2026-04-05T20:51:56.000Z</time></trkpt>
        <trkpt lat="28.7250491" lon="104.6484718"><ele>684.47</ele><time>2026-04-05T20:52:10.000Z</time></trkpt>
        <trkpt lat="28.7249668" lon="104.6484912"><ele>684.61</ele><time>2026-04-05T20:52:24.000Z</time></trkpt>
        <trkpt lat="28.7248752" lon="104.6484683"><ele>684.85</ele><time>2026-04-05T20:52:42.000Z</time></trkpt>
        <trkpt lat="28.7247768" lon="104.6484228"><ele>689.41</ele><time>2026-04-05T20:52:56.000Z</time></trkpt>
        <trkpt lat="28.7246858" lon="104.6483626"><ele>693.53</ele><time>2026-04-05T20:53:08.000Z</time></trkpt>
        <trkpt lat="28.7246096" lon="104.6482771"><ele>697.31</ele><time>2026-04-05T20:53:22.000Z</time></trkpt>
        <trkpt lat="28.7245987" lon="104.6482564"><ele>700.71</ele><time>2026-04-05T20:53:24.000Z</time></trkpt>
        <trkpt lat="28.724549" lon="104.6482086"><ele>701.93</ele><time>2026-04-05T20:54:12.000Z</time></trkpt>
        <trkpt lat="28.724469" lon="104.6481816"><ele>704.43</ele><time>2026-04-05T20:54:30.000Z</time></trkpt>
        <trkpt lat="28.724382" lon="104.6482151"><ele>707.71</ele><time>2026-04-05T20:54:48.000Z</time></trkpt>
        <trkpt lat="28.7242751" lon="104.6482275"><ele>712.76</ele><time>2026-04-05T20:55:00.000Z</time></trkpt>
        <trkpt lat="28.7241709" lon="104.6482317"><ele>716.12</ele><time>2026-04-05T20:55:10.000Z</time></trkpt>
        <trkpt lat="28.7240742" lon="104.648211"><ele>718.12</ele><time>2026-04-05T20:55:18.000Z</time></trkpt>
        <trkpt lat="28.7239695" lon="104.6481617"><ele>719.78</ele><time>2026-04-05T20:56:04.000Z</time></trkpt>
        <trkpt lat="28.7238777" lon="104.6480977"><ele>721</ele><time>2026-04-05T20:56:12.000Z</time></trkpt>
        <trkpt lat="28.7237922" lon="104.6480485"><ele>721.16</ele><time>2026-04-05T20:56:20.000Z</time></trkpt>
        <trkpt lat="28.7237087" lon="104.6480056"><ele>720.33</ele><time>2026-04-05T20:56:26.000Z</time></trkpt>
        <trkpt lat="28.7236408" lon="104.6479526"><ele>718.55</ele><time>2026-04-05T20:56:32.000Z</time></trkpt>
        <trkpt lat="28.7235499" lon="104.6479019"><ele>718.57</ele><time>2026-04-05T20:56:42.000Z</time></trkpt>
        <trkpt lat="28.7234748" lon="104.6478336"><ele>720.82</ele><time>2026-04-05T20:56:50.000Z</time></trkpt>
        <trkpt lat="28.7234009" lon="104.6477466"><ele>722.97</ele><time>2026-04-05T20:56:58.000Z</time></trkpt>
        <trkpt lat="28.7233346" lon="104.6476508"><ele>724.63</ele><time>2026-04-05T20:57:06.000Z</time></trkpt>
        <trkpt lat="28.7232804" lon="104.6475502"><ele>726.65</ele><time>2026-04-05T20:57:16.000Z</time></trkpt>
        <trkpt lat="28.7233099" lon="104.6474604"><ele>728.71</ele><time>2026-04-05T20:57:36.000Z</time></trkpt>
        <trkpt lat="28.7232781" lon="104.6475494"><ele>728.8</ele><time>2026-04-05T21:04:19.000Z</time></trkpt>
        <trkpt lat="28.7231818" lon="104.6475063"><ele>727.53</ele><time>2026-04-05T21:05:49.000Z</time></trkpt>
        <trkpt lat="28.7230929" lon="104.6474823"><ele>728.18</ele><time>2026-04-05T21:05:59.000Z</time></trkpt>
        <trkpt lat="28.7229996" lon="104.6474316"><ele>727.43</ele><time>2026-04-05T21:06:11.000Z</time></trkpt>
        <trkpt lat="28.7229189" lon="104.6473654"><ele>726.65</ele><time>2026-04-05T21:06:21.000Z</time></trkpt>
        <trkpt lat="28.7228357" lon="104.6473211"><ele>725.95</ele><time>2026-04-05T21:06:31.000Z</time></trkpt>
        <trkpt lat="28.7227466" lon="104.6473448"><ele>724.64</ele><time>2026-04-05T21:06:41.000Z</time></trkpt>
        <trkpt lat="28.7226796" lon="104.6474224"><ele>723.65</ele><time>2026-04-05T21:06:51.000Z</time></trkpt>
        <trkpt lat="28.7226015" lon="104.6474479"><ele>722.11</ele><time>2026-04-05T21:07:07.000Z</time></trkpt>
        <trkpt lat="28.7225739" lon="104.6473772"><ele>720.44</ele><time>2026-04-05T21:07:23.000Z</time></trkpt>
        <trkpt lat="28.7225933" lon="104.6472721"><ele>717.85</ele><time>2026-04-05T21:07:45.000Z</time></trkpt>
        <trkpt lat="28.7226442" lon="104.6471534"><ele>714.13</ele><time>2026-04-05T21:07:57.000Z</time></trkpt>
        <trkpt lat="28.722688" lon="104.6470817"><ele>712.38</ele><time>2026-04-05T21:08:09.000Z</time></trkpt>
        <trkpt lat="28.7227629" lon="104.6470082"><ele>709.62</ele><time>2026-04-05T21:08:37.000Z</time></trkpt>
        <trkpt lat="28.7228675" lon="104.6469699"><ele>705.8</ele><time>2026-04-05T21:09:07.000Z</time></trkpt>
        <trkpt lat="28.7229006" lon="104.6469623"><ele>703.36</ele><time>2026-04-05T21:09:11.000Z</time></trkpt>
        <trkpt lat="28.722955" lon="104.6469155"><ele>700.25</ele><time>2026-04-05T21:09:29.000Z</time></trkpt>
        <trkpt lat="28.723034" lon="104.6468619"><ele>697.02</ele><time>2026-04-05T21:09:41.000Z</time></trkpt>
        <trkpt lat="28.7231361" lon="104.6468472"><ele>693.48</ele><time>2026-04-05T21:10:03.000Z</time></trkpt>
        <trkpt lat="28.7232363" lon="104.6468454"><ele>690.68</ele><time>2026-04-05T21:10:17.000Z</time></trkpt>
        <trkpt lat="28.7233129" lon="104.6467945"><ele>686.48</ele><time>2026-04-05T21:10:29.000Z</time></trkpt>
        <trkpt lat="28.7233832" lon="104.646724"><ele>683.02</ele><time>2026-04-05T21:10:41.000Z</time></trkpt>
        <trkpt lat="28.7234667" lon="104.6466863"><ele>677.96</ele><time>2026-04-05T21:10:51.000Z</time></trkpt>
        <trkpt lat="28.7235507" lon="104.6466494"><ele>675.81</ele><time>2026-04-05T21:11:03.000Z</time></trkpt>
        <trkpt lat="28.7236438" lon="104.646608"><ele>672.76</ele><time>2026-04-05T21:11:15.000Z</time></trkpt>
        <trkpt lat="28.7236807" lon="104.6465986"><ele>669.75</ele><time>2026-04-05T21:11:19.000Z</time></trkpt>
        <trkpt lat="28.7237567" lon="104.6465804"><ele>667.53</ele><time>2026-04-05T21:11:35.000Z</time></trkpt>
        <trkpt lat="28.7237228" lon="104.6465228"><ele>663.74</ele><time>2026-04-05T21:11:43.000Z</time></trkpt>
        <trkpt lat="28.7236416" lon="104.6464556"><ele>662.53</ele><time>2026-04-05T21:11:59.000Z</time></trkpt>
        <trkpt lat="28.7235842" lon="104.6463603"><ele>661.33</ele><time>2026-04-05T21:12:41.000Z</time></trkpt>
        <trkpt lat="28.7235391" lon="104.6463173"><ele>658.64</ele><time>2026-04-05T21:12:49.000Z</time></trkpt>
        <trkpt lat="28.7234804" lon="104.6462362"><ele>656.43</ele><time>2026-04-05T21:13:17.000Z</time></trkpt>
        <trkpt lat="28.7235045" lon="104.6461453"><ele>651.85</ele><time>2026-04-05T21:14:05.000Z</time></trkpt>
        <trkpt lat="28.7235246" lon="104.6461161"><ele>642.92</ele><time>2026-04-05T21:14:09.000Z</time></trkpt>
        <trkpt lat="28.723501" lon="104.6460411"><ele>636.89</ele><time>2026-04-05T21:14:25.000Z</time></trkpt>
        <trkpt lat="28.7234286" lon="104.6459876"><ele>631.59</ele><time>2026-04-05T21:14:47.000Z</time></trkpt>
        <trkpt lat="28.7233408" lon="104.6460138"><ele>627.55</ele><time>2026-04-05T21:15:21.000Z</time></trkpt>
        <trkpt lat="28.7233667" lon="104.6459734"><ele>623.53</ele><time>2026-04-05T21:15:49.000Z</time></trkpt>
        <trkpt lat="28.7234658" lon="104.6459422"><ele>620.83</ele><time>2026-04-05T21:15:59.000Z</time></trkpt>
        <trkpt lat="28.723575" lon="104.6459617"><ele>618.29</ele><time>2026-04-05T21:16:07.000Z</time></trkpt>
        <trkpt lat="28.7236064" lon="104.6459737"><ele>616.86</ele><time>2026-04-05T21:16:09.000Z</time></trkpt>
        <trkpt lat="28.7236763" lon="104.6459526"><ele>614.39</ele><time>2026-04-05T21:16:23.000Z</time></trkpt>
        <trkpt lat="28.7237653" lon="104.6459288"><ele>612.89</ele><time>2026-04-05T21:16:35.000Z</time></trkpt>
        <trkpt lat="28.7238574" lon="104.6459548"><ele>610.95</ele><time>2026-04-05T21:16:45.000Z</time></trkpt>
        <trkpt lat="28.7239537" lon="104.645974"><ele>607.43</ele><time>2026-04-05T21:16:57.000Z</time></trkpt>
        <trkpt lat="28.7240211" lon="104.6460051"><ele>603.34</ele><time>2026-04-05T21:17:09.000Z</time></trkpt>
        <trkpt lat="28.7239991" lon="104.6459362"><ele>600.26</ele><time>2026-04-05T21:17:25.000Z</time></trkpt>
        <trkpt lat="28.724061" lon="104.645911"><ele>597.39</ele><time>2026-04-05T21:17:39.000Z</time></trkpt>
        <trkpt lat="28.7241565" lon="104.6458985"><ele>593.23</ele><time>2026-04-05T21:17:49.000Z</time></trkpt>
        <trkpt lat="28.7241764" lon="104.6458055"><ele>590.73</ele><time>2026-04-05T21:18:03.000Z</time></trkpt>
        <trkpt lat="28.7241346" lon="104.6457069"><ele>586.5</ele><time>2026-04-05T21:18:13.000Z</time></trkpt>
        <trkpt lat="28.7240665" lon="104.6456222"><ele>582.43</ele><time>2026-04-05T21:18:23.000Z</time></trkpt>
        <trkpt lat="28.7240028" lon="104.6455349"><ele>579.25</ele><time>2026-04-05T21:18:35.000Z</time></trkpt>
        <trkpt lat="28.7240436" lon="104.6454592"><ele>576.55</ele><time>2026-04-05T21:18:55.000Z</time></trkpt>
        <trkpt lat="28.7241119" lon="104.64538"><ele>573.42</ele><time>2026-04-05T21:19:09.000Z</time></trkpt>
        <trkpt lat="28.7241757" lon="104.6452896"><ele>569.44</ele><time>2026-04-05T21:19:27.000Z</time></trkpt>
        <trkpt lat="28.7242164" lon="104.6451874"><ele>565</ele><time>2026-04-05T21:19:37.000Z</time></trkpt>
        <trkpt lat="28.7242272" lon="104.6451554"><ele>561.96</ele><time>2026-04-05T21:19:39.000Z</time></trkpt>
        <trkpt lat="28.7243027" lon="104.6451538"><ele>560.23</ele><time>2026-04-05T21:19:59.000Z</time></trkpt>
        <trkpt lat="28.7243992" lon="104.6451707"><ele>559.54</ele><time>2026-04-05T21:20:09.000Z</time></trkpt>
        <trkpt lat="28.724503" lon="104.6451515"><ele>558.84</ele><time>2026-04-05T21:20:21.000Z</time></trkpt>
        <trkpt lat="28.724541" lon="104.6451003"><ele>558.57</ele><time>2026-04-05T21:20:27.000Z</time></trkpt>
        <trkpt lat="28.7245761" lon="104.6450076"><ele>558.78</ele><time>2026-04-05T21:20:47.000Z</time></trkpt>
        <trkpt lat="28.7246177" lon="104.644904"><ele>558.19</ele><time>2026-04-05T21:20:59.000Z</time></trkpt>
        <trkpt lat="28.7246943" lon="104.64484"><ele>557.22</ele><time>2026-04-05T21:21:11.000Z</time></trkpt>
        <trkpt lat="28.7247954" lon="104.644829"><ele>554.35</ele><time>2026-04-05T21:21:21.000Z</time></trkpt>
        <trkpt lat="28.7248995" lon="104.6448613"><ele>551.73</ele><time>2026-04-05T21:21:31.000Z</time></trkpt>
        <trkpt lat="28.7249537" lon="104.6448007"><ele>548.96</ele><time>2026-04-05T21:21:45.000Z</time></trkpt>
        <trkpt lat="28.7250216" lon="104.6447298"><ele>546.96</ele><time>2026-04-05T21:22:09.000Z</time></trkpt>
        <trkpt lat="28.7251046" lon="104.6447369"><ele>542.25</ele><time>2026-04-05T21:22:23.000Z</time></trkpt>
        <trkpt lat="28.7251883" lon="104.6447822"><ele>538.6</ele><time>2026-04-05T21:22:31.000Z</time></trkpt>
        <trkpt lat="28.7252732" lon="104.6448374"><ele>535.87</ele><time>2026-04-05T21:22:39.000Z</time></trkpt>
        <trkpt lat="28.7253685" lon="104.6448402"><ele>534.86</ele><time>2026-04-05T21:22:49.000Z</time></trkpt>
        <trkpt lat="28.7254435" lon="104.6447703"><ele>533.94</ele><time>2026-04-05T21:23:01.000Z</time></trkpt>
        <trkpt lat="28.7255169" lon="104.6446838"><ele>533</ele><time>2026-04-05T21:23:11.000Z</time></trkpt>
        <trkpt lat="28.7255717" lon="104.6445893"><ele>531.68</ele><time>2026-04-05T21:23:21.000Z</time></trkpt>
        <trkpt lat="28.7256339" lon="104.6444947"><ele>529.8</ele><time>2026-04-05T21:23:33.000Z</time></trkpt>
        <trkpt lat="28.7256893" lon="104.6444046"><ele>528.62</ele><time>2026-04-05T21:23:41.000Z</time></trkpt>
        <trkpt lat="28.7257461" lon="104.6443138"><ele>526.96</ele><time>2026-04-05T21:23:49.000Z</time></trkpt>
        <trkpt lat="28.7258011" lon="104.6442099"><ele>525.11</ele><time>2026-04-05T21:23:59.000Z</time></trkpt>
        <trkpt lat="28.7258078" lon="104.6441819"><ele>522.32</ele><time>2026-04-05T21:24:01.000Z</time></trkpt>
        <trkpt lat="28.7257493" lon="104.6441187"><ele>519.12</ele><time>2026-04-05T21:24:19.000Z</time></trkpt>
        <trkpt lat="28.7257765" lon="104.6440541"><ele>515.63</ele><time>2026-04-05T21:24:27.000Z</time></trkpt>
        <trkpt lat="28.7258552" lon="104.6440057"><ele>512.09</ele><time>2026-04-05T21:24:37.000Z</time></trkpt>
        <trkpt lat="28.7259031" lon="104.643921"><ele>511.52</ele><time>2026-04-05T21:24:47.000Z</time></trkpt>
        <trkpt lat="28.7259617" lon="104.6438272"><ele>509.94</ele><time>2026-04-05T21:24:57.000Z</time></trkpt>
        <trkpt lat="28.7260482" lon="104.6438011"><ele>508.4</ele><time>2026-04-05T21:25:07.000Z</time></trkpt>
        <trkpt lat="28.7261437" lon="104.6438424"><ele>508.49</ele><time>2026-04-05T21:25:39.000Z</time></trkpt>
        <trkpt lat="28.7261889" lon="104.6438894"><ele>509.63</ele><time>2026-04-05T21:25:49.000Z</time></trkpt>
        <trkpt lat="28.7261326" lon="104.6438605"><ele>509.74</ele><time>2026-04-05T21:26:15.000Z</time></trkpt>
        <trkpt lat="28.7260257" lon="104.6438246"><ele>510.59</ele><time>2026-04-05T21:26:23.000Z</time></trkpt>
        <trkpt lat="28.7259163" lon="104.6437943"><ele>511.44</ele><time>2026-04-05T21:26:31.000Z</time></trkpt>
        <trkpt lat="28.7258569" lon="104.6437832"><ele>510.83</ele><time>2026-04-05T21:26:39.000Z</time></trkpt>
        <trkpt lat="28.7257802" lon="104.6438088"><ele>509.4</ele><time>2026-04-05T21:27:15.000Z</time></trkpt>
        <trkpt lat="28.7257214" lon="104.6437519"><ele>508.92</ele><time>2026-04-05T21:27:23.000Z</time></trkpt>
        <trkpt lat="28.7257318" lon="104.6436383"><ele>508.63</ele><time>2026-04-05T21:27:33.000Z</time></trkpt>
        <trkpt lat="28.7257779" lon="104.6435177"><ele>506.95</ele><time>2026-04-05T21:27:43.000Z</time></trkpt>
        <trkpt lat="28.7258209" lon="104.6434056"><ele>506.45</ele><time>2026-04-05T21:27:51.000Z</time></trkpt>
        <trkpt lat="28.7258378" lon="104.6432969"><ele>506.67</ele><time>2026-04-05T21:28:01.000Z</time></trkpt>
        <trkpt lat="28.7258014" lon="104.6431968"><ele>507.12</ele><time>2026-04-05T21:28:11.000Z</time></trkpt>
        <trkpt lat="28.7258343" lon="104.6432446"><ele>507.43</ele><time>2026-04-05T21:28:39.000Z</time></trkpt>
        <trkpt lat="28.7258336" lon="104.6433652"><ele>507.73</ele><time>2026-04-05T21:28:49.000Z</time></trkpt>
        <trkpt lat="28.7258075" lon="104.6435014"><ele>508.19</ele><time>2026-04-05T21:28:57.000Z</time></trkpt>
        <trkpt lat="28.7258034" lon="104.6436321"><ele>508.39</ele><time>2026-04-05T21:29:03.000Z</time></trkpt>
        <trkpt lat="28.7258794" lon="104.6436995"><ele>508.88</ele><time>2026-04-05T21:29:09.000Z</time></trkpt>
        <trkpt lat="28.7259345" lon="104.6436179"><ele>506.41</ele><time>2026-04-05T21:29:15.000Z</time></trkpt>
        <trkpt lat="28.7259744" lon="104.6434994"><ele>505.48</ele><time>2026-04-05T21:29:23.000Z</time></trkpt>
        <trkpt lat="28.7260064" lon="104.6433676"><ele>503.91</ele><time>2026-04-05T21:29:31.000Z</time></trkpt>
        <trkpt lat="28.7260724" lon="104.643281"><ele>502.39</ele><time>2026-04-05T21:29:41.000Z</time></trkpt>
        <trkpt lat="28.7261236" lon="104.6433315"><ele>501.12</ele><time>2026-04-05T21:30:03.000Z</time></trkpt>
        <trkpt lat="28.7262113" lon="104.6433633"><ele>497.65</ele><time>2026-04-05T21:30:17.000Z</time></trkpt>
        <trkpt lat="28.7263073" lon="104.643343"><ele>496.5</ele><time>2026-04-05T21:30:51.000Z</time></trkpt>
        <trkpt lat="28.726398" lon="104.6433031"><ele>495.54</ele><time>2026-04-05T21:31:01.000Z</time></trkpt>
        <trkpt lat="28.7264958" lon="104.6433005"><ele>494.11</ele><time>2026-04-05T21:31:11.000Z</time></trkpt>
        <trkpt lat="28.7265903" lon="104.643316"><ele>492.87</ele><time>2026-04-05T21:31:21.000Z</time></trkpt>
        <trkpt lat="28.7266534" lon="104.6433251"><ele>490.51</ele><time>2026-04-05T21:31:27.000Z</time></trkpt>
        <trkpt lat="28.726736" lon="104.6433179"><ele>488.15</ele><time>2026-04-05T21:31:49.000Z</time></trkpt>
        <trkpt lat="28.7268289" lon="104.6432776"><ele>485.3</ele><time>2026-04-05T21:32:27.000Z</time></trkpt>
        <trkpt lat="28.7269266" lon="104.6432631"><ele>480.83</ele><time>2026-04-05T21:32:37.000Z</time></trkpt>
        <trkpt lat="28.7269701" lon="104.6432713"><ele>475.34</ele><time>2026-04-05T21:32:41.000Z</time></trkpt>
        <trkpt lat="28.7270422" lon="104.643296"><ele>472.01</ele><time>2026-04-05T21:32:53.000Z</time></trkpt>
        <trkpt lat="28.7271297" lon="104.6432823"><ele>470.12</ele><time>2026-04-05T21:33:07.000Z</time></trkpt>
        <trkpt lat="28.7272199" lon="104.64325"><ele>469.21</ele><time>2026-04-05T21:33:29.000Z</time></trkpt>
        <trkpt lat="28.7272863" lon="104.6431664"><ele>466.72</ele><time>2026-04-05T21:33:53.000Z</time></trkpt>
        <trkpt lat="28.7273555" lon="104.6430837"><ele>461.03</ele><time>2026-04-05T21:34:09.000Z</time></trkpt>
        <trkpt lat="28.7274228" lon="104.6429948"><ele>456.56</ele><time>2026-04-05T21:34:29.000Z</time></trkpt>
        <trkpt lat="28.7274837" lon="104.6428933"><ele>453.26</ele><time>2026-04-05T21:34:43.000Z</time></trkpt>
        <trkpt lat="28.7275213" lon="104.6428858"><ele>448.5</ele><time>2026-04-05T21:34:49.000Z</time></trkpt>
        <trkpt lat="28.7275894" lon="104.6428433"><ele>445.33</ele><time>2026-04-05T21:35:13.000Z</time></trkpt>
        <trkpt lat="28.7276474" lon="104.6427569"><ele>444.59</ele><time>2026-04-05T21:35:21.000Z</time></trkpt>
        <trkpt lat="28.727663" lon="104.6426322"><ele>444.13</ele><time>2026-04-05T21:35:29.000Z</time></trkpt>
        <trkpt lat="28.7276946" lon="104.6425151"><ele>444.07</ele><time>2026-04-05T21:35:37.000Z</time></trkpt>
        <trkpt lat="28.7277533" lon="104.6423676"><ele>443.29</ele><time>2026-04-05T21:35:43.000Z</time></trkpt>
        <trkpt lat="28.7277937" lon="104.6422367"><ele>442.19</ele><time>2026-04-05T21:35:47.000Z</time></trkpt>
        <trkpt lat="28.7278505" lon="104.6421328"><ele>440.9</ele><time>2026-04-05T21:35:51.000Z</time></trkpt>
        <trkpt lat="28.7279305" lon="104.6420691"><ele>438.38</ele><time>2026-04-05T21:36:01.000Z</time></trkpt>
        <trkpt lat="28.7280126" lon="104.641997"><ele>437.16</ele><time>2026-04-05T21:36:13.000Z</time></trkpt>
        <trkpt lat="28.7280779" lon="104.6419129"><ele>435.43</ele><time>2026-04-05T21:36:21.000Z</time></trkpt>
        <trkpt lat="28.7281539" lon="104.6418247"><ele>432.54</ele><time>2026-04-05T21:36:31.000Z</time></trkpt>
        <trkpt lat="28.728243" lon="104.6417641"><ele>429.82</ele><time>2026-04-05T21:36:39.000Z</time></trkpt>
        <trkpt lat="28.728333" lon="104.6417352"><ele>427.54</ele><time>2026-04-05T21:36:47.000Z</time></trkpt>
        <trkpt lat="28.7284264" lon="104.641679"><ele>426.3</ele><time>2026-04-05T21:36:57.000Z</time></trkpt>
        <trkpt lat="28.7284943" lon="104.6415906"><ele>424.82</ele><time>2026-04-05T21:37:05.000Z</time></trkpt>
        <trkpt lat="28.7285618" lon="104.6415027"><ele>425.95</ele><time>2026-04-05T21:37:13.000Z</time></trkpt>
        <trkpt lat="28.7286247" lon="104.6414126"><ele>425.68</ele><time>2026-04-05T21:37:21.000Z</time></trkpt>
        <trkpt lat="28.7286939" lon="104.6413261"><ele>422.79</ele><time>2026-04-05T21:37:29.000Z</time></trkpt>
        <trkpt lat="28.7287671" lon="104.641242"><ele>419.83</ele><time>2026-04-05T21:37:37.000Z</time></trkpt>
        <trkpt lat="28.7288223" lon="104.641147"><ele>417.37</ele><time>2026-04-05T21:37:45.000Z</time></trkpt>
        <trkpt lat="28.7288601" lon="104.641047"><ele>415.8</ele><time>2026-04-05T21:37:53.000Z</time></trkpt>
        <trkpt lat="28.7288842" lon="104.6409404"><ele>414.48</ele><time>2026-04-05T21:38:01.000Z</time></trkpt>
        <trkpt lat="28.7288696" lon="104.640836"><ele>411.82</ele><time>2026-04-05T21:38:09.000Z</time></trkpt>
        <trkpt lat="28.7288301" lon="104.6407193"><ele>410.21</ele><time>2026-04-05T21:38:19.000Z</time></trkpt>
        <trkpt lat="28.7287745" lon="104.6406245"><ele>409.07</ele><time>2026-04-05T21:38:27.000Z</time></trkpt>
        <trkpt lat="28.7287561" lon="104.6405194"><ele>410.67</ele><time>2026-04-05T21:38:37.000Z</time></trkpt>
        <trkpt lat="28.7287524" lon="104.640398"><ele>410.65</ele><time>2026-04-05T21:38:45.000Z</time></trkpt>
        <trkpt lat="28.7287546" lon="104.6402755"><ele>407.92</ele><time>2026-04-05T21:38:53.000Z</time></trkpt>
        <trkpt lat="28.7287701" lon="104.6401587"><ele>406.15</ele><time>2026-04-05T21:39:01.000Z</time></trkpt>
        <trkpt lat="28.7287866" lon="104.6400522"><ele>405.56</ele><time>2026-04-05T21:39:09.000Z</time></trkpt>
        <trkpt lat="28.7288104" lon="104.6399439"><ele>403.76</ele><time>2026-04-05T21:39:19.000Z</time></trkpt>
        <trkpt lat="28.7288222" lon="104.6398235"><ele>401.15</ele><time>2026-04-05T21:39:29.000Z</time></trkpt>
        <trkpt lat="28.7288139" lon="104.6397049"><ele>398.86</ele><time>2026-04-05T21:39:39.000Z</time></trkpt>
        <trkpt lat="28.7287708" lon="104.6396066"><ele>396.6</ele><time>2026-04-05T21:39:49.000Z</time></trkpt>
        <trkpt lat="28.728725" lon="104.639501"><ele>396</ele><time>2026-04-05T21:39:59.000Z</time></trkpt>
        <trkpt lat="28.7286807" lon="104.639391"><ele>395.82</ele><time>2026-04-05T21:40:07.000Z</time></trkpt>
        <trkpt lat="28.728645" lon="104.6392895"><ele>394.41</ele><time>2026-04-05T21:40:15.000Z</time></trkpt>
        <trkpt lat="28.728621" lon="104.6391869"><ele>392.32</ele><time>2026-04-05T21:40:23.000Z</time></trkpt>
        <trkpt lat="28.7286814" lon="104.6391274"><ele>391.5</ele><time>2026-04-05T21:40:33.000Z</time></trkpt>
        <trkpt lat="28.7287714" lon="104.6391563"><ele>390.51</ele><time>2026-04-05T21:40:41.000Z</time></trkpt>
        <trkpt lat="28.7288738" lon="104.6391968"><ele>389.71</ele><time>2026-04-05T21:40:49.000Z</time></trkpt>
        <trkpt lat="28.7289609" lon="104.6391559"><ele>388.98</ele><time>2026-04-05T21:40:57.000Z</time></trkpt>
        <trkpt lat="28.7290068" lon="104.639059"><ele>388.25</ele><time>2026-04-05T21:41:05.000Z</time></trkpt>
        <trkpt lat="28.7290357" lon="104.6389362"><ele>387.62</ele><time>2026-04-05T21:41:15.000Z</time></trkpt>
        <trkpt lat="28.7290966" lon="104.6388318"><ele>386.95</ele><time>2026-04-05T21:41:27.000Z</time></trkpt>
        <trkpt lat="28.7291846" lon="104.6387655"><ele>385.86</ele><time>2026-04-05T21:41:37.000Z</time></trkpt>
        <trkpt lat="28.7292806" lon="104.6387313"><ele>384.72</ele><time>2026-04-05T21:41:45.000Z</time></trkpt>
        <trkpt lat="28.7293838" lon="104.6387222"><ele>384.11</ele><time>2026-04-05T21:41:53.000Z</time></trkpt>
        <trkpt lat="28.7294816" lon="104.6387458"><ele>383.25</ele><time>2026-04-05T21:42:01.000Z</time></trkpt>
        <trkpt lat="28.7295529" lon="104.638816"><ele>382.13</ele><time>2026-04-05T21:42:09.000Z</time></trkpt>
        <trkpt lat="28.7296319" lon="104.6388789"><ele>379.58</ele><time>2026-04-05T21:42:17.000Z</time></trkpt>
        <trkpt lat="28.7297262" lon="104.6389002"><ele>378</ele><time>2026-04-05T21:42:25.000Z</time></trkpt>
        <trkpt lat="28.7298101" lon="104.6388393"><ele>377.53</ele><time>2026-04-05T21:42:33.000Z</time></trkpt>
        <trkpt lat="28.7298595" lon="104.6387242"><ele>377.8</ele><time>2026-04-05T21:42:43.000Z</time></trkpt>
        <trkpt lat="28.7298879" lon="104.6385915"><ele>378.39</ele><time>2026-04-05T21:42:53.000Z</time></trkpt>
        <trkpt lat="28.7299213" lon="104.6384638"><ele>378.67</ele><time>2026-04-05T21:43:03.000Z</time></trkpt>
        <trkpt lat="28.7299912" lon="104.638376"><ele>378.66</ele><time>2026-04-05T21:43:13.000Z</time></trkpt>
        <trkpt lat="28.7300721" lon="104.638321"><ele>378.49</ele><time>2026-04-05T21:43:21.000Z</time></trkpt>
        <trkpt lat="28.7301644" lon="104.6382588"><ele>377.9</ele><time>2026-04-05T21:43:31.000Z</time></trkpt>
        <trkpt lat="28.7302397" lon="104.6381919"><ele>376.65</ele><time>2026-04-05T21:43:39.000Z</time></trkpt>
        <trkpt lat="28.7303193" lon="104.6381256"><ele>375.46</ele><time>2026-04-05T21:43:47.000Z</time></trkpt>
        <trkpt lat="28.7304094" lon="104.6380747"><ele>374.03</ele><time>2026-04-05T21:43:55.000Z</time></trkpt>
        <trkpt lat="28.7304716" lon="104.6379979"><ele>371.51</ele><time>2026-04-05T21:44:01.000Z</time></trkpt>
        <trkpt lat="28.7305489" lon="104.6379169"><ele>367.77</ele><time>2026-04-05T21:44:09.000Z</time></trkpt>
        <trkpt lat="28.7306233" lon="104.6378489"><ele>364.73</ele><time>2026-04-05T21:44:15.000Z</time></trkpt>
        <trkpt lat="28.7307199" lon="104.6377871"><ele>363.06</ele><time>2026-04-05T21:44:23.000Z</time></trkpt>
        <trkpt lat="28.7308182" lon="104.6377339"><ele>363.51</ele><time>2026-04-05T21:44:31.000Z</time></trkpt>
        <trkpt lat="28.7309117" lon="104.6376952"><ele>362.79</ele><time>2026-04-05T21:44:39.000Z</time></trkpt>
        <trkpt lat="28.7309991" lon="104.6376613"><ele>362.29</ele><time>2026-04-05T21:44:47.000Z</time></trkpt>
        <trkpt lat="28.731088" lon="104.6376233"><ele>361.98</ele><time>2026-04-05T21:44:57.000Z</time></trkpt>
        <trkpt lat="28.7311787" lon="104.637606"><ele>361.55</ele><time>2026-04-05T21:45:05.000Z</time></trkpt>
        <trkpt lat="28.7312819" lon="104.6375756"><ele>361.28</ele><time>2026-04-05T21:45:15.000Z</time></trkpt>
        <trkpt lat="28.7313701" lon="104.6375191"><ele>360.68</ele><time>2026-04-05T21:45:23.000Z</time></trkpt>
        <trkpt lat="28.7314367" lon="104.6374346"><ele>359.73</ele><time>2026-04-05T21:45:31.000Z</time></trkpt>
        <trkpt lat="28.7314817" lon="104.6373327"><ele>358.86</ele><time>2026-04-05T21:45:39.000Z</time></trkpt>
        <trkpt lat="28.7315256" lon="104.6372213"><ele>357.09</ele><time>2026-04-05T21:45:47.000Z</time></trkpt>
        <trkpt lat="28.731555" lon="104.6371086"><ele>356.71</ele><time>2026-04-05T21:45:55.000Z</time></trkpt>
        <trkpt lat="28.7315741" lon="104.6370738"><ele>357.09</ele><time>2026-04-05T21:45:59.000Z</time></trkpt>
        <trkpt lat="28.7316614" lon="104.6370954"><ele>357.05</ele><time>2026-04-05T21:46:23.000Z</time></trkpt>
        <trkpt lat="28.7316586" lon="104.6370326"><ele>356.44</ele><time>2026-04-05T21:46:37.000Z</time></trkpt>
        <trkpt lat="28.7315726" lon="104.6370397"><ele>355.13</ele><time>2026-04-05T21:46:47.000Z</time></trkpt>
        <trkpt lat="28.7314842" lon="104.6370969"><ele>354.71</ele><time>2026-04-05T21:46:55.000Z</time></trkpt>
        <trkpt lat="28.731399" lon="104.6371962"><ele>353.97</ele><time>2026-04-05T21:47:05.000Z</time></trkpt>
        <trkpt lat="28.7313282" lon="104.6373066"><ele>354.54</ele><time>2026-04-05T21:47:13.000Z</time></trkpt>
        <trkpt lat="28.7312459" lon="104.6373802"><ele>355.96</ele><time>2026-04-05T21:47:21.000Z</time></trkpt>
        <trkpt lat="28.7311481" lon="104.6374331"><ele>356.47</ele><time>2026-04-05T21:47:31.000Z</time></trkpt>
        <trkpt lat="28.7310538" lon="104.6374166"><ele>356.65</ele><time>2026-04-05T21:47:39.000Z</time></trkpt>
        <trkpt lat="28.7309895" lon="104.6373239"><ele>356.49</ele><time>2026-04-05T21:47:47.000Z</time></trkpt>
        <trkpt lat="28.7309937" lon="104.6371971"><ele>355.01</ele><time>2026-04-05T21:47:55.000Z</time></trkpt>
        <trkpt lat="28.7310333" lon="104.6370842"><ele>352.58</ele><time>2026-04-05T21:48:03.000Z</time></trkpt>
        <trkpt lat="28.731085" lon="104.6369571"><ele>350.71</ele><time>2026-04-05T21:48:11.000Z</time></trkpt>
        <trkpt lat="28.7311302" lon="104.6368488"><ele>347.59</ele><time>2026-04-05T21:48:17.000Z</time></trkpt>
        <trkpt lat="28.7311666" lon="104.6367493"><ele>346.21</ele><time>2026-04-05T21:48:23.000Z</time></trkpt>
        <trkpt lat="28.731208" lon="104.6366572"><ele>345.59</ele><time>2026-04-05T21:48:31.000Z</time></trkpt>
        <trkpt lat="28.7312627" lon="104.636548"><ele>343.58</ele><time>2026-04-05T21:48:39.000Z</time></trkpt>
        <trkpt lat="28.7313123" lon="104.6364256"><ele>342.21</ele><time>2026-04-05T21:48:47.000Z</time></trkpt>
        <trkpt lat="28.7313423" lon="104.6363133"><ele>340.78</ele><time>2026-04-05T21:48:53.000Z</time></trkpt>
        <trkpt lat="28.7313533" lon="104.6361898"><ele>339.98</ele><time>2026-04-05T21:49:01.000Z</time></trkpt>
        <trkpt lat="28.7313463" lon="104.6360675"><ele>339.78</ele><time>2026-04-05T21:49:09.000Z</time></trkpt>
        <trkpt lat="28.7313085" lon="104.6359619"><ele>339.88</ele><time>2026-04-05T21:49:17.000Z</time></trkpt>
        <trkpt lat="28.7312554" lon="104.6358673"><ele>340.11</ele><time>2026-04-05T21:49:25.000Z</time></trkpt>
        <trkpt lat="28.7312265" lon="104.6357675"><ele>339.62</ele><time>2026-04-05T21:49:33.000Z</time></trkpt>
        <trkpt lat="28.7311962" lon="104.635659"><ele>338.72</ele><time>2026-04-05T21:49:41.000Z</time></trkpt>
        <trkpt lat="28.7311758" lon="104.6355404"><ele>338.48</ele><time>2026-04-05T21:49:49.000Z</time></trkpt>
        <trkpt lat="28.7311589" lon="104.6354243"><ele>337.76</ele><time>2026-04-05T21:49:57.000Z</time></trkpt>
        <trkpt lat="28.7310962" lon="104.6353288"><ele>337.31</ele><time>2026-04-05T21:50:05.000Z</time></trkpt>
        <trkpt lat="28.7310175" lon="104.6352465"><ele>335.66</ele><time>2026-04-05T21:50:13.000Z</time></trkpt>
        <trkpt lat="28.7309731" lon="104.6351311"><ele>335.45</ele><time>2026-04-05T21:50:21.000Z</time></trkpt>
        <trkpt lat="28.730935" lon="104.6350086"><ele>333.88</ele><time>2026-04-05T21:50:29.000Z</time></trkpt>
        <trkpt lat="28.7308768" lon="104.6349009"><ele>331.51</ele><time>2026-04-05T21:50:37.000Z</time></trkpt>
        <trkpt lat="28.7308025" lon="104.6348169"><ele>329.08</ele><time>2026-04-05T21:50:45.000Z</time></trkpt>
        <trkpt lat="28.7307345" lon="104.6347368"><ele>326.36</ele><time>2026-04-05T21:50:53.000Z</time></trkpt>
        <trkpt lat="28.7306881" lon="104.6346409"><ele>324.36</ele><time>2026-04-05T21:51:01.000Z</time></trkpt>
        <trkpt lat="28.7306502" lon="104.6345354"><ele>323.68</ele><time>2026-04-05T21:51:09.000Z</time></trkpt>
        <trkpt lat="28.7306149" lon="104.6344299"><ele>323.78</ele><time>2026-04-05T21:51:17.000Z</time></trkpt>
        <trkpt lat="28.7305607" lon="104.6343374"><ele>323.98</ele><time>2026-04-05T21:51:25.000Z</time></trkpt>
        <trkpt lat="28.7304849" lon="104.6342792"><ele>324.42</ele><time>2026-04-05T21:51:37.000Z</time></trkpt>
        <trkpt lat="28.7304295" lon="104.6341957"><ele>325.6</ele><time>2026-04-05T21:51:45.000Z</time></trkpt>
        <trkpt lat="28.7303756" lon="104.6340889"><ele>326.13</ele><time>2026-04-05T21:51:53.000Z</time></trkpt>
        <trkpt lat="28.7303213" lon="104.6339908"><ele>327.57</ele><time>2026-04-05T21:52:05.000Z</time></trkpt>
        <trkpt lat="28.730249" lon="104.633912"><ele>326.77</ele><time>2026-04-05T21:52:17.000Z</time></trkpt>
        <trkpt lat="28.730162" lon="104.6338589"><ele>327.43</ele><time>2026-04-05T21:52:27.000Z</time></trkpt>
        <trkpt lat="28.730069" lon="104.6338427"><ele>328.01</ele><time>2026-04-05T21:52:35.000Z</time></trkpt>
        <trkpt lat="28.7299565" lon="104.6338577"><ele>328.51</ele><time>2026-04-05T21:52:43.000Z</time></trkpt>
        <trkpt lat="28.7298556" lon="104.6338283"><ele>329.1</ele><time>2026-04-05T21:52:51.000Z</time></trkpt>
        <trkpt lat="28.7297678" lon="104.6337647"><ele>330.18</ele><time>2026-04-05T21:52:59.000Z</time></trkpt>
        <trkpt lat="28.7296819" lon="104.6336915"><ele>331.18</ele><time>2026-04-05T21:53:07.000Z</time></trkpt>
        <trkpt lat="28.7295966" lon="104.6336242"><ele>333.07</ele><time>2026-04-05T21:53:15.000Z</time></trkpt>
        <trkpt lat="28.7295131" lon="104.6335659"><ele>335.63</ele><time>2026-04-05T21:53:23.000Z</time></trkpt>
        <trkpt lat="28.7294492" lon="104.6336357"><ele>337</ele><time>2026-04-05T21:53:37.000Z</time></trkpt>
        <trkpt lat="28.7293943" lon="104.6337074"><ele>334.26</ele><time>2026-04-05T21:53:45.000Z</time></trkpt>
        <trkpt lat="28.7294372" lon="104.6336846"><ele>332.77</ele><time>2026-04-05T21:54:07.000Z</time></trkpt>
        <trkpt lat="28.7294942" lon="104.6335862"><ele>331.46</ele><time>2026-04-05T21:54:17.000Z</time></trkpt>
        <trkpt lat="28.7295044" lon="104.6334628"><ele>329.52</ele><time>2026-04-05T21:54:35.000Z</time></trkpt>
        <trkpt lat="28.7294965" lon="104.6333458"><ele>334.13</ele><time>2026-04-05T21:54:47.000Z</time></trkpt>
        <trkpt lat="28.7295525" lon="104.6332719"><ele>337.44</ele><time>2026-04-05T21:55:05.000Z</time></trkpt>
        <trkpt lat="28.7296139" lon="104.6331931"><ele>340.4</ele><time>2026-04-05T21:55:19.000Z</time></trkpt>
        <trkpt lat="28.7296648" lon="104.6331166"><ele>344.13</ele><time>2026-04-05T21:55:31.000Z</time></trkpt>
        <trkpt lat="28.7295964" lon="104.6330416"><ele>346.94</ele><time>2026-04-05T21:56:37.000Z</time></trkpt>
        <trkpt lat="28.7295456" lon="104.6329819"><ele>347.19</ele><time>2026-04-05T21:56:47.000Z</time></trkpt>
        <trkpt lat="28.7294947" lon="104.632894"><ele>347.76</ele><time>2026-04-05T21:57:05.000Z</time></trkpt>
        <trkpt lat="28.7294139" lon="104.6328293"><ele>349.72</ele><time>2026-04-05T21:57:15.000Z</time></trkpt>
        <trkpt lat="28.7293922" lon="104.6328032"><ele>351.02</ele><time>2026-04-05T21:57:19.000Z</time></trkpt>
        <trkpt lat="28.7294443" lon="104.6327436"><ele>351.6</ele><time>2026-04-05T21:57:53.000Z</time></trkpt>
        <trkpt lat="28.7295109" lon="104.6326605"><ele>347.4</ele><time>2026-04-05T21:58:03.000Z</time></trkpt>
        <trkpt lat="28.729566" lon="104.6325762"><ele>343.91</ele><time>2026-04-05T21:58:15.000Z</time></trkpt>
        <trkpt lat="28.7296221" lon="104.6324906"><ele>340.22</ele><time>2026-04-05T21:59:11.000Z</time></trkpt>
        <trkpt lat="28.7296896" lon="104.632405"><ele>336.5</ele><time>2026-04-05T21:59:35.000Z</time></trkpt>
        <trkpt lat="28.7297432" lon="104.6323057"><ele>331.08</ele><time>2026-04-05T21:59:49.000Z</time></trkpt>
        <trkpt lat="28.7297873" lon="104.6322104"><ele>325.75</ele><time>2026-04-05T22:00:09.000Z</time></trkpt>
        <trkpt lat="28.7298601" lon="104.6321264"><ele>319.42</ele><time>2026-04-05T22:00:19.000Z</time></trkpt>
        <trkpt lat="28.7299224" lon="104.6320457"><ele>314.9</ele><time>2026-04-05T22:00:31.000Z</time></trkpt>
        <trkpt lat="28.7299034" lon="104.6319493"><ele>311.24</ele><time>2026-04-05T22:00:39.000Z</time></trkpt>
        <trkpt lat="28.7298498" lon="104.6318582"><ele>308.94</ele><time>2026-04-05T22:00:47.000Z</time></trkpt>
        <trkpt lat="28.7298284" lon="104.6318201"><ele>307.76</ele><time>2026-04-05T22:00:53.000Z</time></trkpt>
        <trkpt lat="28.7297658" lon="104.6317445"><ele>306.68</ele><time>2026-04-05T22:01:11.000Z</time></trkpt>
        <trkpt lat="28.729684" lon="104.6316644"><ele>305.23</ele><time>2026-04-05T22:01:19.000Z</time></trkpt>
        <trkpt lat="28.7296116" lon="104.6315856"><ele>303.5</ele><time>2026-04-05T22:01:25.000Z</time></trkpt>
        <trkpt lat="28.7295792" lon="104.6315287"><ele>302.14</ele><time>2026-04-05T22:01:31.000Z</time></trkpt>
        <trkpt lat="28.7295076" lon="104.6314646"><ele>301.29</ele><time>2026-04-05T22:01:57.000Z</time></trkpt>
        <trkpt lat="28.7294245" lon="104.6314197"><ele>299.57</ele><time>2026-04-05T22:02:03.000Z</time></trkpt>
        <trkpt lat="28.7293386" lon="104.6313754"><ele>298.2</ele><time>2026-04-05T22:02:09.000Z</time></trkpt>
        <trkpt lat="28.7292589" lon="104.6313032"><ele>296.77</ele><time>2026-04-05T22:02:17.000Z</time></trkpt>
        <trkpt lat="28.7291778" lon="104.6312225"><ele>295.7</ele><time>2026-04-05T22:02:25.000Z</time></trkpt>
        <trkpt lat="28.7291005" lon="104.6311305"><ele>294.75</ele><time>2026-04-05T22:02:33.000Z</time></trkpt>
        <trkpt lat="28.7290152" lon="104.6310391"><ele>294.06</ele><time>2026-04-05T22:02:41.000Z</time></trkpt>
        <trkpt lat="28.7289241" lon="104.6309485"><ele>292.85</ele><time>2026-04-05T22:02:49.000Z</time></trkpt>
        <trkpt lat="28.7288495" lon="104.6308723"><ele>291.54</ele><time>2026-04-05T22:02:55.000Z</time></trkpt>
        <trkpt lat="28.7287869" lon="104.6307963"><ele>290.5</ele><time>2026-04-05T22:03:01.000Z</time></trkpt>
        <trkpt lat="28.728772" lon="104.6307444"><ele>289.86</ele><time>2026-04-05T22:03:05.000Z</time></trkpt>
        <trkpt lat="28.7287693" lon="104.6306484"><ele>289.56</ele><time>2026-04-05T22:03:19.000Z</time></trkpt>
        <trkpt lat="28.7287601" lon="104.6306028"><ele>288.53</ele><time>2026-04-05T22:03:27.000Z</time></trkpt>
        <trkpt lat="28.7288313" lon="104.6306862"><ele>287.93</ele><time>2026-04-05T22:05:13.000Z</time></trkpt>
        <trkpt lat="28.7289076" lon="104.6307521"><ele>286.77</ele><time>2026-04-05T22:05:25.000Z</time></trkpt>
        <trkpt lat="28.7289819" lon="104.6308338"><ele>286.13</ele><time>2026-04-05T22:05:33.000Z</time></trkpt>
        <trkpt lat="28.7290626" lon="104.630906"><ele>285.59</ele><time>2026-04-05T22:05:41.000Z</time></trkpt>
        <trkpt lat="28.7291441" lon="104.6309701"><ele>285.32</ele><time>2026-04-05T22:05:49.000Z</time></trkpt>
        <trkpt lat="28.7292362" lon="104.6310139"><ele>285.21</ele><time>2026-04-05T22:05:57.000Z</time></trkpt>
        <trkpt lat="28.7293344" lon="104.6310265"><ele>285.43</ele><time>2026-04-05T22:06:09.000Z</time></trkpt>
        <trkpt lat="28.7294215" lon="104.6310877"><ele>285.34</ele><time>2026-04-05T22:06:19.000Z</time></trkpt>
        <trkpt lat="28.7295022" lon="104.6311647"><ele>285.36</ele><time>2026-04-05T22:06:27.000Z</time></trkpt>
        <trkpt lat="28.7295808" lon="104.6312408"><ele>285.94</ele><time>2026-04-05T22:06:35.000Z</time></trkpt>
        <trkpt lat="28.7296666" lon="104.6313209"><ele>286.1</ele><time>2026-04-05T22:06:43.000Z</time></trkpt>
        <trkpt lat="28.7297626" lon="104.6313992"><ele>286.43</ele><time>2026-04-05T22:06:51.000Z</time></trkpt>
        <trkpt lat="28.7298432" lon="104.6314641"><ele>285.28</ele><time>2026-04-05T22:06:57.000Z</time></trkpt>
        <trkpt lat="28.7299431" lon="104.631471"><ele>284.23</ele><time>2026-04-05T22:07:05.000Z</time></trkpt>
        <trkpt lat="28.7300051" lon="104.6313786"><ele>283.52</ele><time>2026-04-05T22:07:13.000Z</time></trkpt>
        <trkpt lat="28.7300405" lon="104.6312626"><ele>283.43</ele><time>2026-04-05T22:07:19.000Z</time></trkpt>
        <trkpt lat="28.7300815" lon="104.6311572"><ele>283.95</ele><time>2026-04-05T22:07:25.000Z</time></trkpt>
        <trkpt lat="28.7301252" lon="104.631173"><ele>284.94</ele><time>2026-04-05T22:07:35.000Z</time></trkpt>
        <trkpt lat="28.7301252" lon="104.631173"><ele>284.94</ele><time>2026-04-05T22:07:46.000Z</time></trkpt>
      </trkseg>
  </trk>
</gpx>